<?xml version="1.0" encoding="UTF-8" standalone="no" ?>
<gpx xmlns="http://www.topografix.com/GPX/1/1" xmlns:gpxtpx="http://www.garmin.com/xmlschemas/TrackPointExtension/v1" creator="OruxMaps v.7.4.22" version="1.1" xmlns:xsi="http://www.w3.org/2001/XMLSchema-instance" xsi:schemaLocation="http://www.topografix.com/GPX/1/1 http://www.topografix.com/GPX/1/1/gpx.xsd">
<metadata>
<name><![CDATA[2020-05-17 10:59]]></name>
<link href="https://www.oruxmaps.com">
<text>OruxMaps</text>
</link>
<time>2020-05-17T08:59:38Z</time><bounds maxlat="49.1498200" maxlon="2.6901049" minlat="49.1252717" minlon="2.6197512"/>
</metadata>
<wpt lat="49.1276470" lon="2.6899741">
<ele>83.14</ele>
<time>2020-05-17T08:59:38Z</time>
<name><![CDATA[0000003]]></name>
<sym>Waypoint</sym>
<type>Point de départ</type>
<extensions>
<om:oruxmapsextensions xmlns:om="http://www.oruxmaps.com/oruxmapsextensions/1/0">
<om:ext type="ICON" subtype="0">38</om:ext>
</om:oruxmapsextensions>
</extensions>
</wpt>
<wpt lat="49.1274720" lon="2.6901049">
<ele>81.05</ele>
<time>2020-05-17T10:47:53Z</time>
<name><![CDATA[0000004]]></name>
<desc><![CDATA[<p><br /><h3>Nom: Segment: 1</h3><br />Heure de départ: 10:59 17 mai 2020<br/>Heure d'arrivée: 12:47 17 mai 2020<br/>Distance: 20,5km (01:47)<br/>Temps déplacement: 01:22<br/>Vitesse moyenne: 11,39 km/h<br/>Vitesse moyenne mouv.: 14,96 km/h<br/>Vitesse Max.: 34,43 km/h<br/>Altitude minimale: 67 m<br/>Altitude maximale: 118 m<br/>Vitesse de montée: 382,9 m/h<br/>Vitesse de descente: -637,5 m/h<br/>Gain d'altitude: 420 m<br/>Perte d'altitude: -420 m<br/>Temps de montée: 01:05<br/>Temps de descente: 00:39<br/></p>]]></desc>
<sym>Waypoint</sym>
<type>Point d'arrivée</type>
<extensions>
<om:oruxmapsextensions xmlns:om="http://www.oruxmaps.com/oruxmapsextensions/1/0">
<om:ext type="ICON" subtype="0">15</om:ext>
</om:oruxmapsextensions>
</extensions>
</wpt>
<trk>
<name><![CDATA[2020-05-17 10:59]]></name>
<desc><![CDATA[<p>Heure de départ: 10:59 17 mai 2020<br/>Heure d'arrivée: 12:47 17 mai 2020<br/>Distance: 20,5 km (01:47)<br/>Temps déplacement: 01:22<br/>Vitesse moyenne: 11,39 km/h<br/>Vitesse moyenne mouv.: 14,99 km/h<br/>Vitesse Max.: 34,43 km/h<br/>Altitude minimale: 67 m<br/>Altitude maximale: 118 m<br/>Vitesse de montée: 302,4 m/h<br/>Vitesse de descente: -516,1 m/h<br/>Gain d'altitude: 335 m<br/>Perte d'altitude: -333 m<br/>Temps de montée: 01:06<br/>Temps de descente: 00:38<br/></p><hr align="center" width="480" style="height: 2px; width: 517px"/>]]></desc>
<type>Indéfini</type>
<extensions>
<om:oruxmapsextensions xmlns:om="http://www.oruxmaps.com/oruxmapsextensions/1/0">
<om:ext type="TYPE" subtype="0">0</om:ext>
<om:ext type="DIFFICULTY">0</om:ext>
</om:oruxmapsextensions>
</extensions>
<trkseg>
<trkpt lat="49.1276470" lon="2.6899741">
<ele>83.14</ele>
<time>2020-05-17T08:59:39Z</time>
</trkpt>
<trkpt lat="49.1274640" lon="2.6900519">
<ele>79.31</ele>
<time>2020-05-17T09:00:04Z</time>
</trkpt>
<trkpt lat="49.1273818" lon="2.6897944">
<ele>79.88</ele>
<time>2020-05-17T09:00:09Z</time>
</trkpt>
<trkpt lat="49.1274235" lon="2.6894891">
<ele>79.71</ele>
<time>2020-05-17T09:00:15Z</time>
</trkpt>
<trkpt lat="49.1275010" lon="2.6892391">
<ele>81.14</ele>
<time>2020-05-17T09:00:20Z</time>
</trkpt>
<trkpt lat="49.1275616" lon="2.6889423">
<ele>82.17</ele>
<time>2020-05-17T09:00:25Z</time>
</trkpt>
<trkpt lat="49.1276337" lon="2.6886613">
<ele>82.50</ele>
<time>2020-05-17T09:00:30Z</time>
</trkpt>
<trkpt lat="49.1277275" lon="2.6883941">
<ele>83.06</ele>
<time>2020-05-17T09:00:36Z</time>
</trkpt>
<trkpt lat="49.1277985" lon="2.6881253">
<ele>85.78</ele>
<time>2020-05-17T09:00:42Z</time>
</trkpt>
<trkpt lat="49.1278791" lon="2.6878302">
<ele>87.59</ele>
<time>2020-05-17T09:00:48Z</time>
</trkpt>
<trkpt lat="49.1279653" lon="2.6875358">
<ele>90.02</ele>
<time>2020-05-17T09:00:54Z</time>
</trkpt>
<trkpt lat="49.1280293" lon="2.6872415">
<ele>93.17</ele>
<time>2020-05-17T09:01:00Z</time>
</trkpt>
<trkpt lat="49.1280773" lon="2.6869651">
<ele>92.90</ele>
<time>2020-05-17T09:01:06Z</time>
</trkpt>
<trkpt lat="49.1281120" lon="2.6866824">
<ele>92.64</ele>
<time>2020-05-17T09:01:10Z</time>
</trkpt>
<trkpt lat="49.1281495" lon="2.6863755">
<ele>94.34</ele>
<time>2020-05-17T09:01:14Z</time>
</trkpt>
<trkpt lat="49.1281866" lon="2.6860712">
<ele>93.55</ele>
<time>2020-05-17T09:01:18Z</time>
</trkpt>
<trkpt lat="49.1281964" lon="2.6857743">
<ele>92.36</ele>
<time>2020-05-17T09:01:22Z</time>
</trkpt>
<trkpt lat="49.1283116" lon="2.6855603">
<ele>95.99</ele>
<time>2020-05-17T09:01:40Z</time>
</trkpt>
<trkpt lat="49.1284804" lon="2.6854383">
<ele>98.73</ele>
<time>2020-05-17T09:01:45Z</time>
</trkpt>
<trkpt lat="49.1286701" lon="2.6853315">
<ele>99.70</ele>
<time>2020-05-17T09:01:50Z</time>
</trkpt>
<trkpt lat="49.1288466" lon="2.6852391">
<ele>99.28</ele>
<time>2020-05-17T09:01:58Z</time>
</trkpt>
<trkpt lat="49.1290259" lon="2.6851874">
<ele>99.79</ele>
<time>2020-05-17T09:02:04Z</time>
</trkpt>
<trkpt lat="49.1292173" lon="2.6850092">
<ele>97.06</ele>
<time>2020-05-17T09:02:10Z</time>
</trkpt>
<trkpt lat="49.1294606" lon="2.6850164">
<ele>96.54</ele>
<time>2020-05-17T09:02:14Z</time>
</trkpt>
<trkpt lat="49.1296561" lon="2.6851403">
<ele>94.86</ele>
<time>2020-05-17T09:02:18Z</time>
</trkpt>
<trkpt lat="49.1298397" lon="2.6851215">
<ele>94.61</ele>
<time>2020-05-17T09:02:24Z</time>
</trkpt>
<trkpt lat="49.1300105" lon="2.6849983">
<ele>87.64</ele>
<time>2020-05-17T09:02:41Z</time>
</trkpt>
<trkpt lat="49.1302912" lon="2.6848284">
<ele>84.67</ele>
<time>2020-05-17T09:02:49Z</time>
</trkpt>
<trkpt lat="49.1304582" lon="2.6847014">
<ele>84.89</ele>
<time>2020-05-17T09:02:57Z</time>
</trkpt>
<trkpt lat="49.1306135" lon="2.6845063">
<ele>86.15</ele>
<time>2020-05-17T09:03:04Z</time>
</trkpt>
<trkpt lat="49.1308080" lon="2.6846080">
<ele>85.08</ele>
<time>2020-05-17T09:03:09Z</time>
</trkpt>
<trkpt lat="49.1309996" lon="2.6845603">
<ele>82.98</ele>
<time>2020-05-17T09:03:16Z</time>
</trkpt>
<trkpt lat="49.1311503" lon="2.6843916">
<ele>85.15</ele>
<time>2020-05-17T09:03:31Z</time>
</trkpt>
<trkpt lat="49.1312604" lon="2.6841333">
<ele>85.15</ele>
<time>2020-05-17T09:03:38Z</time>
</trkpt>
<trkpt lat="49.1314426" lon="2.6841421">
<ele>86.92</ele>
<time>2020-05-17T09:03:47Z</time>
</trkpt>
<trkpt lat="49.1316096" lon="2.6840319">
<ele>86.78</ele>
<time>2020-05-17T09:04:21Z</time>
</trkpt>
<trkpt lat="49.1317766" lon="2.6838871">
<ele>93.69</ele>
<time>2020-05-17T09:04:55Z</time>
</trkpt>
<trkpt lat="49.1319626" lon="2.6838701">
<ele>102.10</ele>
<time>2020-05-17T09:05:10Z</time>
</trkpt>
<trkpt lat="49.1321134" lon="2.6840575">
<ele>98.68</ele>
<time>2020-05-17T09:05:27Z</time>
</trkpt>
<trkpt lat="49.1322937" lon="2.6841530">
<ele>95.55</ele>
<time>2020-05-17T09:05:33Z</time>
</trkpt>
<trkpt lat="49.1323458" lon="2.6845186">
<ele>91.11</ele>
<time>2020-05-17T09:05:37Z</time>
</trkpt>
<trkpt lat="49.1324264" lon="2.6848149">
<ele>86.25</ele>
<time>2020-05-17T09:05:41Z</time>
</trkpt>
<trkpt lat="49.1325829" lon="2.6849544">
<ele>86.35</ele>
<time>2020-05-17T09:05:45Z</time>
</trkpt>
<trkpt lat="49.1327306" lon="2.6851451">
<ele>84.78</ele>
<time>2020-05-17T09:05:49Z</time>
</trkpt>
<trkpt lat="49.1328428" lon="2.6853923">
<ele>82.62</ele>
<time>2020-05-17T09:05:54Z</time>
</trkpt>
<trkpt lat="49.1330430" lon="2.6854411">
<ele>81.37</ele>
<time>2020-05-17T09:05:59Z</time>
</trkpt>
<trkpt lat="49.1332258" lon="2.6855130">
<ele>81.32</ele>
<time>2020-05-17T09:06:04Z</time>
</trkpt>
<trkpt lat="49.1334156" lon="2.6855255">
<ele>85.04</ele>
<time>2020-05-17T09:06:09Z</time>
</trkpt>
<trkpt lat="49.1335709" lon="2.6856704">
<ele>84.48</ele>
<time>2020-05-17T09:06:13Z</time>
</trkpt>
<trkpt lat="49.1337524" lon="2.6858300">
<ele>82.36</ele>
<time>2020-05-17T09:06:17Z</time>
</trkpt>
<trkpt lat="49.1339496" lon="2.6859153">
<ele>81.17</ele>
<time>2020-05-17T09:06:22Z</time>
</trkpt>
<trkpt lat="49.1341632" lon="2.6859348">
<ele>79.86</ele>
<time>2020-05-17T09:06:27Z</time>
</trkpt>
<trkpt lat="49.1343365" lon="2.6858571">
<ele>79.41</ele>
<time>2020-05-17T09:06:32Z</time>
</trkpt>
<trkpt lat="49.1345226" lon="2.6858983">
<ele>80.63</ele>
<time>2020-05-17T09:06:36Z</time>
</trkpt>
<trkpt lat="49.1347002" lon="2.6860526">
<ele>80.76</ele>
<time>2020-05-17T09:06:40Z</time>
</trkpt>
<trkpt lat="49.1348973" lon="2.6861610">
<ele>79.99</ele>
<time>2020-05-17T09:06:44Z</time>
</trkpt>
<trkpt lat="49.1350716" lon="2.6863385">
<ele>79.72</ele>
<time>2020-05-17T09:06:49Z</time>
</trkpt>
<trkpt lat="49.1352326" lon="2.6865278">
<ele>80.50</ele>
<time>2020-05-17T09:06:54Z</time>
</trkpt>
<trkpt lat="49.1353787" lon="2.6867133">
<ele>81.39</ele>
<time>2020-05-17T09:06:58Z</time>
</trkpt>
<trkpt lat="49.1355184" lon="2.6869287">
<ele>81.86</ele>
<time>2020-05-17T09:07:02Z</time>
</trkpt>
<trkpt lat="49.1356817" lon="2.6870459">
<ele>82.60</ele>
<time>2020-05-17T09:07:06Z</time>
</trkpt>
<trkpt lat="49.1358878" lon="2.6870748">
<ele>84.03</ele>
<time>2020-05-17T09:07:11Z</time>
</trkpt>
<trkpt lat="49.1360982" lon="2.6871679">
<ele>83.43</ele>
<time>2020-05-17T09:07:15Z</time>
</trkpt>
<trkpt lat="49.1362861" lon="2.6872170">
<ele>80.35</ele>
<time>2020-05-17T09:07:19Z</time>
</trkpt>
<trkpt lat="49.1365213" lon="2.6871150">
<ele>81.75</ele>
<time>2020-05-17T09:07:23Z</time>
</trkpt>
<trkpt lat="49.1367195" lon="2.6870579">
<ele>83.28</ele>
<time>2020-05-17T09:07:27Z</time>
</trkpt>
<trkpt lat="49.1369253" lon="2.6870607">
<ele>82.96</ele>
<time>2020-05-17T09:07:31Z</time>
</trkpt>
<trkpt lat="49.1371053" lon="2.6870087">
<ele>83.35</ele>
<time>2020-05-17T09:07:35Z</time>
</trkpt>
<trkpt lat="49.1372956" lon="2.6870129">
<ele>83.97</ele>
<time>2020-05-17T09:07:39Z</time>
</trkpt>
<trkpt lat="49.1374819" lon="2.6870831">
<ele>83.20</ele>
<time>2020-05-17T09:07:43Z</time>
</trkpt>
<trkpt lat="49.1376717" lon="2.6870979">
<ele>82.48</ele>
<time>2020-05-17T09:07:47Z</time>
</trkpt>
<trkpt lat="49.1378128" lon="2.6868550">
<ele>80.10</ele>
<time>2020-05-17T09:07:52Z</time>
</trkpt>
<trkpt lat="49.1379491" lon="2.6866452">
<ele>82.58</ele>
<time>2020-05-17T09:07:57Z</time>
</trkpt>
<trkpt lat="49.1380882" lon="2.6864664">
<ele>84.16</ele>
<time>2020-05-17T09:08:03Z</time>
</trkpt>
<trkpt lat="49.1382791" lon="2.6863909">
<ele>79.85</ele>
<time>2020-05-17T09:08:10Z</time>
</trkpt>
<trkpt lat="49.1383924" lon="2.6861635">
<ele>78.88</ele>
<time>2020-05-17T09:08:15Z</time>
</trkpt>
<trkpt lat="49.1385326" lon="2.6859005">
<ele>81.53</ele>
<time>2020-05-17T09:08:20Z</time>
</trkpt>
<trkpt lat="49.1387018" lon="2.6856591">
<ele>83.28</ele>
<time>2020-05-17T09:08:25Z</time>
</trkpt>
<trkpt lat="49.1387742" lon="2.6853977">
<ele>85.22</ele>
<time>2020-05-17T09:08:29Z</time>
</trkpt>
<trkpt lat="49.1388955" lon="2.6851925">
<ele>84.33</ele>
<time>2020-05-17T09:08:37Z</time>
</trkpt>
<trkpt lat="49.1389727" lon="2.6849437">
<ele>80.65</ele>
<time>2020-05-17T09:08:42Z</time>
</trkpt>
<trkpt lat="49.1390210" lon="2.6846533">
<ele>78.01</ele>
<time>2020-05-17T09:08:46Z</time>
</trkpt>
<trkpt lat="49.1390749" lon="2.6843851">
<ele>74.43</ele>
<time>2020-05-17T09:08:51Z</time>
</trkpt>
<trkpt lat="49.1390586" lon="2.6841064">
<ele>74.33</ele>
<time>2020-05-17T09:08:56Z</time>
</trkpt>
<trkpt lat="49.1392389" lon="2.6841317">
<ele>74.77</ele>
<time>2020-05-17T09:09:16Z</time>
</trkpt>
<trkpt lat="49.1393550" lon="2.6838989">
<ele>72.87</ele>
<time>2020-05-17T09:09:20Z</time>
</trkpt>
<trkpt lat="49.1393729" lon="2.6835902">
<ele>73.83</ele>
<time>2020-05-17T09:09:25Z</time>
</trkpt>
<trkpt lat="49.1393781" lon="2.6832852">
<ele>74.84</ele>
<time>2020-05-17T09:09:30Z</time>
</trkpt>
<trkpt lat="49.1394789" lon="2.6830312">
<ele>77.48</ele>
<time>2020-05-17T09:09:36Z</time>
</trkpt>
<trkpt lat="49.1396156" lon="2.6827939">
<ele>81.14</ele>
<time>2020-05-17T09:09:42Z</time>
</trkpt>
<trkpt lat="49.1397121" lon="2.6825531">
<ele>79.98</ele>
<time>2020-05-17T09:09:48Z</time>
</trkpt>
<trkpt lat="49.1398697" lon="2.6823764">
<ele>84.70</ele>
<time>2020-05-17T09:09:58Z</time>
</trkpt>
<trkpt lat="49.1399969" lon="2.6821794">
<ele>88.94</ele>
<time>2020-05-17T09:11:26Z</time>
</trkpt>
<trkpt lat="49.1400932" lon="2.6819470">
<ele>94.04</ele>
<time>2020-05-17T09:11:39Z</time>
</trkpt>
<trkpt lat="49.1401781" lon="2.6816851">
<ele>95.51</ele>
<time>2020-05-17T09:12:29Z</time>
</trkpt>
<trkpt lat="49.1402151" lon="2.6813976">
<ele>96.38</ele>
<time>2020-05-17T09:12:36Z</time>
</trkpt>
<trkpt lat="49.1403414" lon="2.6811564">
<ele>99.43</ele>
<time>2020-05-17T09:12:42Z</time>
</trkpt>
<trkpt lat="49.1404665" lon="2.6809214">
<ele>99.74</ele>
<time>2020-05-17T09:12:49Z</time>
</trkpt>
<trkpt lat="49.1405051" lon="2.6806101">
<ele>99.48</ele>
<time>2020-05-17T09:12:53Z</time>
</trkpt>
<trkpt lat="49.1404649" lon="2.6803056">
<ele>98.60</ele>
<time>2020-05-17T09:12:56Z</time>
</trkpt>
<trkpt lat="49.1405328" lon="2.6799858">
<ele>99.47</ele>
<time>2020-05-17T09:13:01Z</time>
</trkpt>
<trkpt lat="49.1406013" lon="2.6796605">
<ele>97.69</ele>
<time>2020-05-17T09:13:08Z</time>
</trkpt>
<trkpt lat="49.1405968" lon="2.6793358">
<ele>99.73</ele>
<time>2020-05-17T09:13:12Z</time>
</trkpt>
<trkpt lat="49.1405841" lon="2.6790482">
<ele>100.20</ele>
<time>2020-05-17T09:13:20Z</time>
</trkpt>
<trkpt lat="49.1404874" lon="2.6787923">
<ele>100.69</ele>
<time>2020-05-17T09:13:29Z</time>
</trkpt>
<trkpt lat="49.1404184" lon="2.6785205">
<ele>97.97</ele>
<time>2020-05-17T09:13:37Z</time>
</trkpt>
<trkpt lat="49.1404051" lon="2.6782458">
<ele>98.30</ele>
<time>2020-05-17T09:13:43Z</time>
</trkpt>
<trkpt lat="49.1404124" lon="2.6779177">
<ele>96.27</ele>
<time>2020-05-17T09:13:48Z</time>
</trkpt>
<trkpt lat="49.1405339" lon="2.6776681">
<ele>98.58</ele>
<time>2020-05-17T09:13:53Z</time>
</trkpt>
<trkpt lat="49.1406174" lon="2.6774106">
<ele>103.60</ele>
<time>2020-05-17T09:14:06Z</time>
</trkpt>
<trkpt lat="49.1407088" lon="2.6771539">
<ele>104.35</ele>
<time>2020-05-17T09:14:14Z</time>
</trkpt>
<trkpt lat="49.1406972" lon="2.6768606">
<ele>104.03</ele>
<time>2020-05-17T09:14:21Z</time>
</trkpt>
<trkpt lat="49.1406188" lon="2.6765968">
<ele>101.20</ele>
<time>2020-05-17T09:14:27Z</time>
</trkpt>
<trkpt lat="49.1406375" lon="2.6763145">
<ele>100.22</ele>
<time>2020-05-17T09:14:34Z</time>
</trkpt>
<trkpt lat="49.1405894" lon="2.6760496">
<ele>103.77</ele>
<time>2020-05-17T09:21:36Z</time>
</trkpt>
<trkpt lat="49.1406822" lon="2.6758112">
<ele>101.36</ele>
<time>2020-05-17T09:21:49Z</time>
</trkpt>
<trkpt lat="49.1407144" lon="2.6754845">
<ele>100.50</ele>
<time>2020-05-17T09:21:53Z</time>
</trkpt>
<trkpt lat="49.1406840" lon="2.6752004">
<ele>103.43</ele>
<time>2020-05-17T09:22:00Z</time>
</trkpt>
<trkpt lat="49.1407766" lon="2.6749043">
<ele>104.73</ele>
<time>2020-05-17T09:22:08Z</time>
</trkpt>
<trkpt lat="49.1407287" lon="2.6746132">
<ele>109.34</ele>
<time>2020-05-17T09:22:17Z</time>
</trkpt>
<trkpt lat="49.1408304" lon="2.6742729">
<ele>111.50</ele>
<time>2020-05-17T09:22:24Z</time>
</trkpt>
<trkpt lat="49.1407582" lon="2.6739986">
<ele>111.92</ele>
<time>2020-05-17T09:22:30Z</time>
</trkpt>
<trkpt lat="49.1408752" lon="2.6737850">
<ele>109.63</ele>
<time>2020-05-17T09:22:37Z</time>
</trkpt>
<trkpt lat="49.1410362" lon="2.6736343">
<ele>109.64</ele>
<time>2020-05-17T09:22:51Z</time>
</trkpt>
<trkpt lat="49.1411510" lon="2.6734158">
<ele>109.44</ele>
<time>2020-05-17T09:22:58Z</time>
</trkpt>
<trkpt lat="49.1412810" lon="2.6732179">
<ele>109.79</ele>
<time>2020-05-17T09:23:02Z</time>
</trkpt>
<trkpt lat="49.1414099" lon="2.6729990">
<ele>111.72</ele>
<time>2020-05-17T09:23:06Z</time>
</trkpt>
<trkpt lat="49.1415535" lon="2.6727643">
<ele>113.02</ele>
<time>2020-05-17T09:23:10Z</time>
</trkpt>
<trkpt lat="49.1416879" lon="2.6725550">
<ele>114.60</ele>
<time>2020-05-17T09:23:32Z</time>
</trkpt>
<trkpt lat="49.1418175" lon="2.6723424">
<ele>115.91</ele>
<time>2020-05-17T09:23:42Z</time>
</trkpt>
<trkpt lat="49.1419583" lon="2.6721141">
<ele>116.73</ele>
<time>2020-05-17T09:23:49Z</time>
</trkpt>
<trkpt lat="49.1421020" lon="2.6719446">
<ele>118.05</ele>
<time>2020-05-17T09:23:54Z</time>
</trkpt>
<trkpt lat="49.1422476" lon="2.6716965">
<ele>117.23</ele>
<time>2020-05-17T09:23:59Z</time>
</trkpt>
<trkpt lat="49.1423801" lon="2.6715019">
<ele>118.30</ele>
<time>2020-05-17T09:24:03Z</time>
</trkpt>
<trkpt lat="49.1425248" lon="2.6712758">
<ele>116.28</ele>
<time>2020-05-17T09:24:09Z</time>
</trkpt>
<trkpt lat="49.1426407" lon="2.6710519">
<ele>115.73</ele>
<time>2020-05-17T09:24:12Z</time>
</trkpt>
<trkpt lat="49.1427819" lon="2.6708205">
<ele>112.19</ele>
<time>2020-05-17T09:24:19Z</time>
</trkpt>
<trkpt lat="49.1429099" lon="2.6705738">
<ele>115.03</ele>
<time>2020-05-17T09:24:24Z</time>
</trkpt>
<trkpt lat="49.1430561" lon="2.6703572">
<ele>115.82</ele>
<time>2020-05-17T09:24:27Z</time>
</trkpt>
<trkpt lat="49.1432232" lon="2.6701400">
<ele>115.98</ele>
<time>2020-05-17T09:24:30Z</time>
</trkpt>
<trkpt lat="49.1433755" lon="2.6698806">
<ele>113.40</ele>
<time>2020-05-17T09:24:33Z</time>
</trkpt>
<trkpt lat="49.1434998" lon="2.6696342">
<ele>113.36</ele>
<time>2020-05-17T09:24:38Z</time>
</trkpt>
<trkpt lat="49.1436688" lon="2.6695049">
<ele>115.84</ele>
<time>2020-05-17T09:24:44Z</time>
</trkpt>
<trkpt lat="49.1438536" lon="2.6696415">
<ele>113.18</ele>
<time>2020-05-17T09:24:54Z</time>
</trkpt>
<trkpt lat="49.1440137" lon="2.6698162">
<ele>111.44</ele>
<time>2020-05-17T09:25:01Z</time>
</trkpt>
<trkpt lat="49.1441804" lon="2.6700057">
<ele>111.78</ele>
<time>2020-05-17T09:25:06Z</time>
</trkpt>
<trkpt lat="49.1443544" lon="2.6701465">
<ele>110.74</ele>
<time>2020-05-17T09:25:12Z</time>
</trkpt>
<trkpt lat="49.1445174" lon="2.6702914">
<ele>110.43</ele>
<time>2020-05-17T09:25:20Z</time>
</trkpt>
<trkpt lat="49.1446233" lon="2.6705251">
<ele>108.22</ele>
<time>2020-05-17T09:25:47Z</time>
</trkpt>
<trkpt lat="49.1447886" lon="2.6707321">
<ele>104.48</ele>
<time>2020-05-17T09:26:02Z</time>
</trkpt>
<trkpt lat="49.1449415" lon="2.6709458">
<ele>105.71</ele>
<time>2020-05-17T09:26:08Z</time>
</trkpt>
<trkpt lat="49.1451072" lon="2.6710840">
<ele>106.27</ele>
<time>2020-05-17T09:26:15Z</time>
</trkpt>
<trkpt lat="49.1452198" lon="2.6713172">
<ele>102.98</ele>
<time>2020-05-17T09:26:20Z</time>
</trkpt>
<trkpt lat="49.1453904" lon="2.6714424">
<ele>102.44</ele>
<time>2020-05-17T09:26:29Z</time>
</trkpt>
<trkpt lat="49.1455800" lon="2.6715090">
<ele>94.86</ele>
<time>2020-05-17T09:26:40Z</time>
</trkpt>
<trkpt lat="49.1457516" lon="2.6714125">
<ele>100.94</ele>
<time>2020-05-17T09:26:49Z</time>
</trkpt>
<trkpt lat="49.1459243" lon="2.6712510">
<ele>97.26</ele>
<time>2020-05-17T09:26:56Z</time>
</trkpt>
<trkpt lat="49.1461821" lon="2.6710984">
<ele>91.57</ele>
<time>2020-05-17T09:26:57Z</time>
</trkpt>
<trkpt lat="49.1463567" lon="2.6712873">
<ele>85.73</ele>
<time>2020-05-17T09:27:05Z</time>
</trkpt>
<trkpt lat="49.1465921" lon="2.6714049">
<ele>82.78</ele>
<time>2020-05-17T09:27:09Z</time>
</trkpt>
<trkpt lat="49.1468213" lon="2.6715170">
<ele>82.46</ele>
<time>2020-05-17T09:27:11Z</time>
</trkpt>
<trkpt lat="49.1469495" lon="2.6717146">
<ele>79.43</ele>
<time>2020-05-17T09:27:14Z</time>
</trkpt>
<trkpt lat="49.1470923" lon="2.6719540">
<ele>78.79</ele>
<time>2020-05-17T09:27:18Z</time>
</trkpt>
<trkpt lat="49.1472903" lon="2.6721346">
<ele>76.50</ele>
<time>2020-05-17T09:27:22Z</time>
</trkpt>
<trkpt lat="49.1474451" lon="2.6723697">
<ele>75.06</ele>
<time>2020-05-17T09:27:26Z</time>
</trkpt>
<trkpt lat="49.1476184" lon="2.6725344">
<ele>73.08</ele>
<time>2020-05-17T09:27:30Z</time>
</trkpt>
<trkpt lat="49.1477775" lon="2.6726787">
<ele>73.79</ele>
<time>2020-05-17T09:27:38Z</time>
</trkpt>
<trkpt lat="49.1479600" lon="2.6726190">
<ele>73.69</ele>
<time>2020-05-17T09:27:43Z</time>
</trkpt>
<trkpt lat="49.1481514" lon="2.6725354">
<ele>73.13</ele>
<time>2020-05-17T09:27:46Z</time>
</trkpt>
<trkpt lat="49.1483536" lon="2.6724656">
<ele>74.61</ele>
<time>2020-05-17T09:27:50Z</time>
</trkpt>
<trkpt lat="49.1485479" lon="2.6724460">
<ele>74.72</ele>
<time>2020-05-17T09:27:54Z</time>
</trkpt>
<trkpt lat="49.1487446" lon="2.6724511">
<ele>74.38</ele>
<time>2020-05-17T09:28:03Z</time>
</trkpt>
<trkpt lat="49.1488025" lon="2.6721851">
<ele>74.33</ele>
<time>2020-05-17T09:28:08Z</time>
</trkpt>
<trkpt lat="49.1488426" lon="2.6719088">
<ele>73.33</ele>
<time>2020-05-17T09:28:12Z</time>
</trkpt>
<trkpt lat="49.1488526" lon="2.6716254">
<ele>70.40</ele>
<time>2020-05-17T09:28:18Z</time>
</trkpt>
<trkpt lat="49.1488731" lon="2.6712840">
<ele>69.76</ele>
<time>2020-05-17T09:28:21Z</time>
</trkpt>
<trkpt lat="49.1488978" lon="2.6709732">
<ele>69.62</ele>
<time>2020-05-17T09:28:25Z</time>
</trkpt>
<trkpt lat="49.1489300" lon="2.6706659">
<ele>70.36</ele>
<time>2020-05-17T09:28:29Z</time>
</trkpt>
<trkpt lat="49.1489517" lon="2.6703569">
<ele>69.85</ele>
<time>2020-05-17T09:28:33Z</time>
</trkpt>
<trkpt lat="49.1489762" lon="2.6700492">
<ele>70.06</ele>
<time>2020-05-17T09:28:37Z</time>
</trkpt>
<trkpt lat="49.1490033" lon="2.6697220">
<ele>70.14</ele>
<time>2020-05-17T09:28:41Z</time>
</trkpt>
<trkpt lat="49.1490291" lon="2.6694287">
<ele>69.07</ele>
<time>2020-05-17T09:28:45Z</time>
</trkpt>
<trkpt lat="49.1490520" lon="2.6691007">
<ele>68.28</ele>
<time>2020-05-17T09:28:51Z</time>
</trkpt>
<trkpt lat="49.1490847" lon="2.6687747">
<ele>69.56</ele>
<time>2020-05-17T09:28:55Z</time>
</trkpt>
<trkpt lat="49.1491175" lon="2.6684543">
<ele>69.66</ele>
<time>2020-05-17T09:29:00Z</time>
</trkpt>
<trkpt lat="49.1491405" lon="2.6681308">
<ele>70.93</ele>
<time>2020-05-17T09:29:05Z</time>
</trkpt>
<trkpt lat="49.1491743" lon="2.6677947">
<ele>71.22</ele>
<time>2020-05-17T09:29:10Z</time>
</trkpt>
<trkpt lat="49.1492006" lon="2.6675038">
<ele>70.48</ele>
<time>2020-05-17T09:29:14Z</time>
</trkpt>
<trkpt lat="49.1492259" lon="2.6672209">
<ele>72.39</ele>
<time>2020-05-17T09:29:18Z</time>
</trkpt>
<trkpt lat="49.1492450" lon="2.6669443">
<ele>71.42</ele>
<time>2020-05-17T09:29:22Z</time>
</trkpt>
<trkpt lat="49.1492698" lon="2.6666671">
<ele>71.17</ele>
<time>2020-05-17T09:29:28Z</time>
</trkpt>
<trkpt lat="49.1492998" lon="2.6663691">
<ele>70.85</ele>
<time>2020-05-17T09:29:30Z</time>
</trkpt>
<trkpt lat="49.1493280" lon="2.6660560">
<ele>71.70</ele>
<time>2020-05-17T09:29:34Z</time>
</trkpt>
<trkpt lat="49.1493557" lon="2.6657428">
<ele>70.94</ele>
<time>2020-05-17T09:29:38Z</time>
</trkpt>
<trkpt lat="49.1493851" lon="2.6654571">
<ele>70.09</ele>
<time>2020-05-17T09:29:42Z</time>
</trkpt>
<trkpt lat="49.1494061" lon="2.6651398">
<ele>69.82</ele>
<time>2020-05-17T09:29:46Z</time>
</trkpt>
<trkpt lat="49.1494296" lon="2.6648246">
<ele>70.86</ele>
<time>2020-05-17T09:29:50Z</time>
</trkpt>
<trkpt lat="49.1494590" lon="2.6645239">
<ele>69.86</ele>
<time>2020-05-17T09:29:54Z</time>
</trkpt>
<trkpt lat="49.1494974" lon="2.6642005">
<ele>68.73</ele>
<time>2020-05-17T09:29:58Z</time>
</trkpt>
<trkpt lat="49.1495220" lon="2.6638700">
<ele>67.74</ele>
<time>2020-05-17T09:30:02Z</time>
</trkpt>
<trkpt lat="49.1495439" lon="2.6635895">
<ele>68.51</ele>
<time>2020-05-17T09:30:05Z</time>
</trkpt>
<trkpt lat="49.1495814" lon="2.6632249">
<ele>68.93</ele>
<time>2020-05-17T09:30:09Z</time>
</trkpt>
<trkpt lat="49.1496052" lon="2.6629417">
<ele>69.27</ele>
<time>2020-05-17T09:30:12Z</time>
</trkpt>
<trkpt lat="49.1496271" lon="2.6626580">
<ele>69.10</ele>
<time>2020-05-17T09:30:15Z</time>
</trkpt>
<trkpt lat="49.1496430" lon="2.6623838">
<ele>68.11</ele>
<time>2020-05-17T09:30:18Z</time>
</trkpt>
<trkpt lat="49.1496642" lon="2.6621013">
<ele>67.16</ele>
<time>2020-05-17T09:30:21Z</time>
</trkpt>
<trkpt lat="49.1496924" lon="2.6618219">
<ele>68.04</ele>
<time>2020-05-17T09:30:24Z</time>
</trkpt>
<trkpt lat="49.1497207" lon="2.6615369">
<ele>67.93</ele>
<time>2020-05-17T09:30:27Z</time>
</trkpt>
<trkpt lat="49.1497465" lon="2.6612526">
<ele>68.33</ele>
<time>2020-05-17T09:30:30Z</time>
</trkpt>
<trkpt lat="49.1497751" lon="2.6609059">
<ele>69.14</ele>
<time>2020-05-17T09:30:34Z</time>
</trkpt>
<trkpt lat="49.1498106" lon="2.6605914">
<ele>69.21</ele>
<time>2020-05-17T09:30:38Z</time>
</trkpt>
<trkpt lat="49.1498200" lon="2.6602962">
<ele>68.66</ele>
<time>2020-05-17T09:30:42Z</time>
</trkpt>
<trkpt lat="49.1497958" lon="2.6599615">
<ele>69.07</ele>
<time>2020-05-17T09:30:47Z</time>
</trkpt>
<trkpt lat="49.1498108" lon="2.6596487">
<ele>68.06</ele>
<time>2020-05-17T09:30:51Z</time>
</trkpt>
<trkpt lat="49.1497586" lon="2.6593533">
<ele>69.64</ele>
<time>2020-05-17T09:30:55Z</time>
</trkpt>
<trkpt lat="49.1497090" lon="2.6590429">
<ele>70.37</ele>
<time>2020-05-17T09:30:59Z</time>
</trkpt>
<trkpt lat="49.1496548" lon="2.6587586">
<ele>70.86</ele>
<time>2020-05-17T09:31:03Z</time>
</trkpt>
<trkpt lat="49.1496091" lon="2.6584424">
<ele>70.95</ele>
<time>2020-05-17T09:31:07Z</time>
</trkpt>
<trkpt lat="49.1495546" lon="2.6581744">
<ele>71.19</ele>
<time>2020-05-17T09:31:11Z</time>
</trkpt>
<trkpt lat="49.1495009" lon="2.6578933">
<ele>71.72</ele>
<time>2020-05-17T09:31:16Z</time>
</trkpt>
<trkpt lat="49.1494626" lon="2.6575860">
<ele>71.56</ele>
<time>2020-05-17T09:31:24Z</time>
</trkpt>
<trkpt lat="49.1494258" lon="2.6572845">
<ele>72.87</ele>
<time>2020-05-17T09:31:29Z</time>
</trkpt>
<trkpt lat="49.1493634" lon="2.6570266">
<ele>73.65</ele>
<time>2020-05-17T09:31:33Z</time>
</trkpt>
<trkpt lat="49.1493090" lon="2.6567629">
<ele>73.90</ele>
<time>2020-05-17T09:31:37Z</time>
</trkpt>
<trkpt lat="49.1492678" lon="2.6564929">
<ele>75.22</ele>
<time>2020-05-17T09:31:41Z</time>
</trkpt>
<trkpt lat="49.1492211" lon="2.6561796">
<ele>75.32</ele>
<time>2020-05-17T09:31:46Z</time>
</trkpt>
<trkpt lat="49.1491767" lon="2.6558880">
<ele>75.89</ele>
<time>2020-05-17T09:31:52Z</time>
</trkpt>
<trkpt lat="49.1491341" lon="2.6555972">
<ele>75.91</ele>
<time>2020-05-17T09:31:56Z</time>
</trkpt>
<trkpt lat="49.1490939" lon="2.6552769">
<ele>76.31</ele>
<time>2020-05-17T09:32:00Z</time>
</trkpt>
<trkpt lat="49.1490326" lon="2.6549680">
<ele>77.04</ele>
<time>2020-05-17T09:32:04Z</time>
</trkpt>
<trkpt lat="49.1489733" lon="2.6546664">
<ele>78.10</ele>
<time>2020-05-17T09:32:08Z</time>
</trkpt>
<trkpt lat="49.1489214" lon="2.6543223">
<ele>77.96</ele>
<time>2020-05-17T09:32:13Z</time>
</trkpt>
<trkpt lat="49.1488725" lon="2.6540228">
<ele>78.40</ele>
<time>2020-05-17T09:32:17Z</time>
</trkpt>
<trkpt lat="49.1488838" lon="2.6537421">
<ele>79.89</ele>
<time>2020-05-17T09:32:21Z</time>
</trkpt>
<trkpt lat="49.1488837" lon="2.6534109">
<ele>84.89</ele>
<time>2020-05-17T09:32:27Z</time>
</trkpt>
<trkpt lat="49.1488816" lon="2.6531025">
<ele>87.93</ele>
<time>2020-05-17T09:32:33Z</time>
</trkpt>
<trkpt lat="49.1488419" lon="2.6528290">
<ele>89.44</ele>
<time>2020-05-17T09:32:39Z</time>
</trkpt>
<trkpt lat="49.1487788" lon="2.6525568">
<ele>92.10</ele>
<time>2020-05-17T09:32:45Z</time>
</trkpt>
<trkpt lat="49.1486809" lon="2.6523065">
<ele>95.53</ele>
<time>2020-05-17T09:32:51Z</time>
</trkpt>
<trkpt lat="49.1486285" lon="2.6520272">
<ele>96.52</ele>
<time>2020-05-17T09:32:58Z</time>
</trkpt>
<trkpt lat="49.1485747" lon="2.6517492">
<ele>97.16</ele>
<time>2020-05-17T09:33:05Z</time>
</trkpt>
<trkpt lat="49.1484878" lon="2.6514979">
<ele>99.27</ele>
<time>2020-05-17T09:33:12Z</time>
</trkpt>
<trkpt lat="49.1484258" lon="2.6512383">
<ele>101.87</ele>
<time>2020-05-17T09:33:18Z</time>
</trkpt>
<trkpt lat="49.1483269" lon="2.6509807">
<ele>101.58</ele>
<time>2020-05-17T09:33:24Z</time>
</trkpt>
<trkpt lat="49.1482309" lon="2.6507156">
<ele>102.31</ele>
<time>2020-05-17T09:33:31Z</time>
</trkpt>
<trkpt lat="49.1481170" lon="2.6504729">
<ele>100.50</ele>
<time>2020-05-17T09:33:36Z</time>
</trkpt>
<trkpt lat="49.1479981" lon="2.6502662">
<ele>101.46</ele>
<time>2020-05-17T09:33:40Z</time>
</trkpt>
<trkpt lat="49.1478752" lon="2.6500101">
<ele>101.47</ele>
<time>2020-05-17T09:33:45Z</time>
</trkpt>
<trkpt lat="49.1477145" lon="2.6498329">
<ele>102.19</ele>
<time>2020-05-17T09:33:50Z</time>
</trkpt>
<trkpt lat="49.1474880" lon="2.6498414">
<ele>104.03</ele>
<time>2020-05-17T09:33:55Z</time>
</trkpt>
<trkpt lat="49.1472904" lon="2.6498212">
<ele>104.17</ele>
<time>2020-05-17T09:33:59Z</time>
</trkpt>
<trkpt lat="49.1470861" lon="2.6498086">
<ele>103.92</ele>
<time>2020-05-17T09:34:03Z</time>
</trkpt>
<trkpt lat="49.1468893" lon="2.6497866">
<ele>105.28</ele>
<time>2020-05-17T09:34:09Z</time>
</trkpt>
<trkpt lat="49.1467154" lon="2.6499047">
<ele>106.52</ele>
<time>2020-05-17T09:34:14Z</time>
</trkpt>
<trkpt lat="49.1465020" lon="2.6498388">
<ele>105.21</ele>
<time>2020-05-17T09:34:19Z</time>
</trkpt>
<trkpt lat="49.1463016" lon="2.6497768">
<ele>105.03</ele>
<time>2020-05-17T09:34:23Z</time>
</trkpt>
<trkpt lat="49.1461139" lon="2.6497375">
<ele>105.16</ele>
<time>2020-05-17T09:34:27Z</time>
</trkpt>
<trkpt lat="49.1459028" lon="2.6497901">
<ele>105.19</ele>
<time>2020-05-17T09:34:31Z</time>
</trkpt>
<trkpt lat="49.1457207" lon="2.6498797">
<ele>105.97</ele>
<time>2020-05-17T09:34:35Z</time>
</trkpt>
<trkpt lat="49.1455596" lon="2.6500601">
<ele>107.47</ele>
<time>2020-05-17T09:34:39Z</time>
</trkpt>
<trkpt lat="49.1453862" lon="2.6502064">
<ele>107.57</ele>
<time>2020-05-17T09:34:43Z</time>
</trkpt>
<trkpt lat="49.1451785" lon="2.6502484">
<ele>109.25</ele>
<time>2020-05-17T09:34:47Z</time>
</trkpt>
<trkpt lat="49.1449569" lon="2.6503104">
<ele>108.05</ele>
<time>2020-05-17T09:34:51Z</time>
</trkpt>
<trkpt lat="49.1447315" lon="2.6503904">
<ele>109.45</ele>
<time>2020-05-17T09:34:55Z</time>
</trkpt>
<trkpt lat="49.1445477" lon="2.6502748">
<ele>110.62</ele>
<time>2020-05-17T09:34:59Z</time>
</trkpt>
<trkpt lat="49.1443441" lon="2.6503171">
<ele>110.48</ele>
<time>2020-05-17T09:35:06Z</time>
</trkpt>
<trkpt lat="49.1441669" lon="2.6502047">
<ele>108.48</ele>
<time>2020-05-17T09:35:12Z</time>
</trkpt>
<trkpt lat="49.1439451" lon="2.6501156">
<ele>107.75</ele>
<time>2020-05-17T09:35:21Z</time>
</trkpt>
<trkpt lat="49.1437695" lon="2.6500091">
<ele>108.29</ele>
<time>2020-05-17T09:35:26Z</time>
</trkpt>
<trkpt lat="49.1436706" lon="2.6497677">
<ele>102.85</ele>
<time>2020-05-17T09:35:34Z</time>
</trkpt>
<trkpt lat="49.1437437" lon="2.6494871">
<ele>105.84</ele>
<time>2020-05-17T09:36:04Z</time>
</trkpt>
<trkpt lat="49.1438861" lon="2.6492558">
<ele>105.78</ele>
<time>2020-05-17T09:36:13Z</time>
</trkpt>
<trkpt lat="49.1440016" lon="2.6490304">
<ele>102.48</ele>
<time>2020-05-17T09:36:17Z</time>
</trkpt>
<trkpt lat="49.1441129" lon="2.6487553">
<ele>103.17</ele>
<time>2020-05-17T09:36:20Z</time>
</trkpt>
<trkpt lat="49.1442108" lon="2.6484575">
<ele>102.54</ele>
<time>2020-05-17T09:36:23Z</time>
</trkpt>
<trkpt lat="49.1442792" lon="2.6481644">
<ele>103.82</ele>
<time>2020-05-17T09:36:26Z</time>
</trkpt>
<trkpt lat="49.1443430" lon="2.6478581">
<ele>103.97</ele>
<time>2020-05-17T09:36:34Z</time>
</trkpt>
<trkpt lat="49.1443877" lon="2.6475687">
<ele>102.95</ele>
<time>2020-05-17T09:36:38Z</time>
</trkpt>
<trkpt lat="49.1444821" lon="2.6472504">
<ele>100.18</ele>
<time>2020-05-17T09:36:42Z</time>
</trkpt>
<trkpt lat="49.1445848" lon="2.6470231">
<ele>101.06</ele>
<time>2020-05-17T09:36:44Z</time>
</trkpt>
<trkpt lat="49.1447149" lon="2.6468329">
<ele>101.63</ele>
<time>2020-05-17T09:36:47Z</time>
</trkpt>
<trkpt lat="49.1449039" lon="2.6466522">
<ele>97.80</ele>
<time>2020-05-17T09:36:50Z</time>
</trkpt>
<trkpt lat="49.1450444" lon="2.6464702">
<ele>99.84</ele>
<time>2020-05-17T09:36:54Z</time>
</trkpt>
<trkpt lat="49.1452175" lon="2.6462753">
<ele>102.62</ele>
<time>2020-05-17T09:36:58Z</time>
</trkpt>
<trkpt lat="49.1454073" lon="2.6460889">
<ele>104.13</ele>
<time>2020-05-17T09:37:03Z</time>
</trkpt>
<trkpt lat="49.1455660" lon="2.6459060">
<ele>107.54</ele>
<time>2020-05-17T09:37:08Z</time>
</trkpt>
<trkpt lat="49.1456861" lon="2.6456747">
<ele>109.33</ele>
<time>2020-05-17T09:37:12Z</time>
</trkpt>
<trkpt lat="49.1457295" lon="2.6453569">
<ele>109.81</ele>
<time>2020-05-17T09:37:17Z</time>
</trkpt>
<trkpt lat="49.1457230" lon="2.6450617">
<ele>110.29</ele>
<time>2020-05-17T09:37:21Z</time>
</trkpt>
<trkpt lat="49.1457458" lon="2.6447653">
<ele>109.85</ele>
<time>2020-05-17T09:37:25Z</time>
</trkpt>
<trkpt lat="49.1458770" lon="2.6445159">
<ele>110.15</ele>
<time>2020-05-17T09:37:29Z</time>
</trkpt>
<trkpt lat="49.1460275" lon="2.6443407">
<ele>108.88</ele>
<time>2020-05-17T09:37:32Z</time>
</trkpt>
<trkpt lat="49.1461799" lon="2.6441744">
<ele>107.70</ele>
<time>2020-05-17T09:37:35Z</time>
</trkpt>
<trkpt lat="49.1463304" lon="2.6439894">
<ele>107.29</ele>
<time>2020-05-17T09:37:38Z</time>
</trkpt>
<trkpt lat="49.1464704" lon="2.6438109">
<ele>106.98</ele>
<time>2020-05-17T09:37:41Z</time>
</trkpt>
<trkpt lat="49.1466456" lon="2.6437195">
<ele>105.98</ele>
<time>2020-05-17T09:37:44Z</time>
</trkpt>
<trkpt lat="49.1468703" lon="2.6438136">
<ele>104.96</ele>
<time>2020-05-17T09:37:48Z</time>
</trkpt>
<trkpt lat="49.1470303" lon="2.6440016">
<ele>105.38</ele>
<time>2020-05-17T09:37:52Z</time>
</trkpt>
<trkpt lat="49.1471877" lon="2.6438450">
<ele>105.84</ele>
<time>2020-05-17T09:38:06Z</time>
</trkpt>
<trkpt lat="49.1472270" lon="2.6435444">
<ele>103.65</ele>
<time>2020-05-17T09:38:11Z</time>
</trkpt>
<trkpt lat="49.1472851" lon="2.6432367">
<ele>101.90</ele>
<time>2020-05-17T09:38:15Z</time>
</trkpt>
<trkpt lat="49.1473170" lon="2.6429452">
<ele>102.21</ele>
<time>2020-05-17T09:38:18Z</time>
</trkpt>
<trkpt lat="49.1473372" lon="2.6426714">
<ele>102.51</ele>
<time>2020-05-17T09:38:21Z</time>
</trkpt>
<trkpt lat="49.1473623" lon="2.6423761">
<ele>103.73</ele>
<time>2020-05-17T09:38:24Z</time>
</trkpt>
<trkpt lat="49.1474081" lon="2.6420975">
<ele>103.94</ele>
<time>2020-05-17T09:38:27Z</time>
</trkpt>
<trkpt lat="49.1474371" lon="2.6418026">
<ele>103.11</ele>
<time>2020-05-17T09:38:30Z</time>
</trkpt>
<trkpt lat="49.1474940" lon="2.6415121">
<ele>101.45</ele>
<time>2020-05-17T09:38:33Z</time>
</trkpt>
<trkpt lat="49.1475128" lon="2.6412249">
<ele>100.87</ele>
<time>2020-05-17T09:38:36Z</time>
</trkpt>
<trkpt lat="49.1475556" lon="2.6409535">
<ele>99.98</ele>
<time>2020-05-17T09:38:39Z</time>
</trkpt>
<trkpt lat="49.1475875" lon="2.6406655">
<ele>100.10</ele>
<time>2020-05-17T09:38:42Z</time>
</trkpt>
<trkpt lat="49.1476265" lon="2.6403715">
<ele>100.56</ele>
<time>2020-05-17T09:38:45Z</time>
</trkpt>
<trkpt lat="49.1476364" lon="2.6400925">
<ele>101.68</ele>
<time>2020-05-17T09:38:48Z</time>
</trkpt>
<trkpt lat="49.1476776" lon="2.6397995">
<ele>101.84</ele>
<time>2020-05-17T09:38:51Z</time>
</trkpt>
<trkpt lat="49.1477248" lon="2.6394642">
<ele>101.37</ele>
<time>2020-05-17T09:38:55Z</time>
</trkpt>
<trkpt lat="49.1477521" lon="2.6391273">
<ele>101.43</ele>
<time>2020-05-17T09:38:59Z</time>
</trkpt>
<trkpt lat="49.1477961" lon="2.6387881">
<ele>101.47</ele>
<time>2020-05-17T09:39:03Z</time>
</trkpt>
<trkpt lat="49.1478160" lon="2.6384999">
<ele>103.16</ele>
<time>2020-05-17T09:39:07Z</time>
</trkpt>
<trkpt lat="49.1479017" lon="2.6382205">
<ele>102.57</ele>
<time>2020-05-17T09:39:12Z</time>
</trkpt>
<trkpt lat="49.1479369" lon="2.6379288">
<ele>102.69</ele>
<time>2020-05-17T09:39:16Z</time>
</trkpt>
<trkpt lat="49.1479770" lon="2.6376337">
<ele>102.52</ele>
<time>2020-05-17T09:39:20Z</time>
</trkpt>
<trkpt lat="49.1480303" lon="2.6373382">
<ele>102.09</ele>
<time>2020-05-17T09:39:24Z</time>
</trkpt>
<trkpt lat="49.1480439" lon="2.6370035">
<ele>102.37</ele>
<time>2020-05-17T09:39:28Z</time>
</trkpt>
<trkpt lat="49.1480745" lon="2.6366479">
<ele>104.44</ele>
<time>2020-05-17T09:39:32Z</time>
</trkpt>
<trkpt lat="49.1481041" lon="2.6362998">
<ele>105.77</ele>
<time>2020-05-17T09:39:36Z</time>
</trkpt>
<trkpt lat="49.1481552" lon="2.6359998">
<ele>106.49</ele>
<time>2020-05-17T09:39:41Z</time>
</trkpt>
<trkpt lat="49.1480092" lon="2.6358332">
<ele>106.23</ele>
<time>2020-05-17T09:39:47Z</time>
</trkpt>
<trkpt lat="49.1478337" lon="2.6356761">
<ele>107.28</ele>
<time>2020-05-17T09:39:52Z</time>
</trkpt>
<trkpt lat="49.1476689" lon="2.6355416">
<ele>106.10</ele>
<time>2020-05-17T09:39:57Z</time>
</trkpt>
<trkpt lat="49.1474923" lon="2.6353272">
<ele>104.32</ele>
<time>2020-05-17T09:40:03Z</time>
</trkpt>
<trkpt lat="49.1473069" lon="2.6351738">
<ele>103.53</ele>
<time>2020-05-17T09:40:07Z</time>
</trkpt>
<trkpt lat="49.1471110" lon="2.6349904">
<ele>103.63</ele>
<time>2020-05-17T09:40:11Z</time>
</trkpt>
<trkpt lat="49.1469133" lon="2.6348254">
<ele>103.19</ele>
<time>2020-05-17T09:40:15Z</time>
</trkpt>
<trkpt lat="49.1467321" lon="2.6346186">
<ele>104.81</ele>
<time>2020-05-17T09:40:19Z</time>
</trkpt>
<trkpt lat="49.1465706" lon="2.6344920">
<ele>105.52</ele>
<time>2020-05-17T09:40:22Z</time>
</trkpt>
<trkpt lat="49.1464002" lon="2.6343645">
<ele>104.72</ele>
<time>2020-05-17T09:40:25Z</time>
</trkpt>
<trkpt lat="49.1462312" lon="2.6342422">
<ele>104.36</ele>
<time>2020-05-17T09:40:28Z</time>
</trkpt>
<trkpt lat="49.1460355" lon="2.6340723">
<ele>103.50</ele>
<time>2020-05-17T09:40:32Z</time>
</trkpt>
<trkpt lat="49.1458794" lon="2.6339341">
<ele>101.98</ele>
<time>2020-05-17T09:40:35Z</time>
</trkpt>
<trkpt lat="49.1457192" lon="2.6337968">
<ele>100.91</ele>
<time>2020-05-17T09:40:39Z</time>
</trkpt>
<trkpt lat="49.1455541" lon="2.6336771">
<ele>100.48</ele>
<time>2020-05-17T09:40:43Z</time>
</trkpt>
<trkpt lat="49.1453807" lon="2.6335402">
<ele>100.60</ele>
<time>2020-05-17T09:40:46Z</time>
</trkpt>
<trkpt lat="49.1451778" lon="2.6333840">
<ele>100.85</ele>
<time>2020-05-17T09:40:49Z</time>
</trkpt>
<trkpt lat="49.1449931" lon="2.6332459">
<ele>101.96</ele>
<time>2020-05-17T09:40:52Z</time>
</trkpt>
<trkpt lat="49.1448408" lon="2.6330808">
<ele>103.15</ele>
<time>2020-05-17T09:40:56Z</time>
</trkpt>
<trkpt lat="49.1446712" lon="2.6329375">
<ele>103.90</ele>
<time>2020-05-17T09:41:03Z</time>
</trkpt>
<trkpt lat="49.1444828" lon="2.6328169">
<ele>105.90</ele>
<time>2020-05-17T09:41:40Z</time>
</trkpt>
<trkpt lat="49.1443357" lon="2.6326376">
<ele>106.91</ele>
<time>2020-05-17T09:41:48Z</time>
</trkpt>
<trkpt lat="49.1443628" lon="2.6323493">
<ele>105.06</ele>
<time>2020-05-17T09:41:54Z</time>
</trkpt>
<trkpt lat="49.1443851" lon="2.6320345">
<ele>103.27</ele>
<time>2020-05-17T09:42:00Z</time>
</trkpt>
<trkpt lat="49.1443518" lon="2.6316964">
<ele>102.95</ele>
<time>2020-05-17T09:42:05Z</time>
</trkpt>
<trkpt lat="49.1443478" lon="2.6314048">
<ele>102.67</ele>
<time>2020-05-17T09:42:10Z</time>
</trkpt>
<trkpt lat="49.1443564" lon="2.6311174">
<ele>103.82</ele>
<time>2020-05-17T09:42:14Z</time>
</trkpt>
<trkpt lat="49.1443697" lon="2.6307827">
<ele>102.33</ele>
<time>2020-05-17T09:42:18Z</time>
</trkpt>
<trkpt lat="49.1443557" lon="2.6304924">
<ele>101.75</ele>
<time>2020-05-17T09:42:21Z</time>
</trkpt>
<trkpt lat="49.1443376" lon="2.6302133">
<ele>101.47</ele>
<time>2020-05-17T09:42:24Z</time>
</trkpt>
<trkpt lat="49.1443361" lon="2.6298702">
<ele>101.22</ele>
<time>2020-05-17T09:42:28Z</time>
</trkpt>
<trkpt lat="49.1443312" lon="2.6295362">
<ele>102.44</ele>
<time>2020-05-17T09:42:33Z</time>
</trkpt>
<trkpt lat="49.1441643" lon="2.6296512">
<ele>107.86</ele>
<time>2020-05-17T09:47:27Z</time>
</trkpt>
<trkpt lat="49.1439573" lon="2.6297713">
<ele>109.87</ele>
<time>2020-05-17T09:47:33Z</time>
</trkpt>
<trkpt lat="49.1437977" lon="2.6299418">
<ele>110.81</ele>
<time>2020-05-17T09:47:36Z</time>
</trkpt>
<trkpt lat="49.1435719" lon="2.6300827">
<ele>109.35</ele>
<time>2020-05-17T09:47:40Z</time>
</trkpt>
<trkpt lat="49.1433664" lon="2.6302171">
<ele>106.94</ele>
<time>2020-05-17T09:47:44Z</time>
</trkpt>
<trkpt lat="49.1432017" lon="2.6303601">
<ele>106.36</ele>
<time>2020-05-17T09:47:47Z</time>
</trkpt>
<trkpt lat="49.1430063" lon="2.6305193">
<ele>105.86</ele>
<time>2020-05-17T09:47:51Z</time>
</trkpt>
<trkpt lat="49.1428283" lon="2.6306488">
<ele>105.84</ele>
<time>2020-05-17T09:47:57Z</time>
</trkpt>
<trkpt lat="49.1426425" lon="2.6306879">
<ele>104.20</ele>
<time>2020-05-17T09:48:02Z</time>
</trkpt>
<trkpt lat="49.1424519" lon="2.6306896">
<ele>100.60</ele>
<time>2020-05-17T09:48:07Z</time>
</trkpt>
<trkpt lat="49.1422471" lon="2.6307425">
<ele>97.33</ele>
<time>2020-05-17T09:48:12Z</time>
</trkpt>
<trkpt lat="49.1420474" lon="2.6307912">
<ele>98.86</ele>
<time>2020-05-17T09:48:15Z</time>
</trkpt>
<trkpt lat="49.1418503" lon="2.6306545">
<ele>96.81</ele>
<time>2020-05-17T09:48:19Z</time>
</trkpt>
<trkpt lat="49.1416724" lon="2.6304511">
<ele>94.39</ele>
<time>2020-05-17T09:48:23Z</time>
</trkpt>
<trkpt lat="49.1415370" lon="2.6302454">
<ele>91.66</ele>
<time>2020-05-17T09:48:26Z</time>
</trkpt>
<trkpt lat="49.1413788" lon="2.6300882">
<ele>89.98</ele>
<time>2020-05-17T09:48:29Z</time>
</trkpt>
<trkpt lat="49.1412059" lon="2.6299151">
<ele>91.10</ele>
<time>2020-05-17T09:48:33Z</time>
</trkpt>
<trkpt lat="49.1410487" lon="2.6297198">
<ele>92.09</ele>
<time>2020-05-17T09:48:41Z</time>
</trkpt>
<trkpt lat="49.1408790" lon="2.6295337">
<ele>91.22</ele>
<time>2020-05-17T09:48:45Z</time>
</trkpt>
<trkpt lat="49.1407127" lon="2.6293619">
<ele>91.97</ele>
<time>2020-05-17T09:48:49Z</time>
</trkpt>
<trkpt lat="49.1405664" lon="2.6292001">
<ele>91.37</ele>
<time>2020-05-17T09:48:53Z</time>
</trkpt>
<trkpt lat="49.1404265" lon="2.6290241">
<ele>92.40</ele>
<time>2020-05-17T09:48:57Z</time>
</trkpt>
<trkpt lat="49.1402505" lon="2.6288178">
<ele>95.30</ele>
<time>2020-05-17T09:49:02Z</time>
</trkpt>
<trkpt lat="49.1401083" lon="2.6286491">
<ele>96.89</ele>
<time>2020-05-17T09:49:06Z</time>
</trkpt>
<trkpt lat="49.1399505" lon="2.6284695">
<ele>98.41</ele>
<time>2020-05-17T09:49:11Z</time>
</trkpt>
<trkpt lat="49.1397747" lon="2.6282775">
<ele>98.56</ele>
<time>2020-05-17T09:49:17Z</time>
</trkpt>
<trkpt lat="49.1396035" lon="2.6280952">
<ele>98.64</ele>
<time>2020-05-17T09:49:22Z</time>
</trkpt>
<trkpt lat="49.1394364" lon="2.6279031">
<ele>99.23</ele>
<time>2020-05-17T09:49:27Z</time>
</trkpt>
<trkpt lat="49.1393255" lon="2.6276527">
<ele>99.35</ele>
<time>2020-05-17T09:49:33Z</time>
</trkpt>
<trkpt lat="49.1392099" lon="2.6274018">
<ele>97.83</ele>
<time>2020-05-17T09:49:37Z</time>
</trkpt>
<trkpt lat="49.1391069" lon="2.6271349">
<ele>94.42</ele>
<time>2020-05-17T09:49:41Z</time>
</trkpt>
<trkpt lat="49.1389878" lon="2.6268736">
<ele>93.10</ele>
<time>2020-05-17T09:49:44Z</time>
</trkpt>
<trkpt lat="49.1388729" lon="2.6266020">
<ele>93.04</ele>
<time>2020-05-17T09:49:47Z</time>
</trkpt>
<trkpt lat="49.1387460" lon="2.6263705">
<ele>95.69</ele>
<time>2020-05-17T09:49:51Z</time>
</trkpt>
<trkpt lat="49.1386378" lon="2.6261044">
<ele>94.94</ele>
<time>2020-05-17T09:50:55Z</time>
</trkpt>
<trkpt lat="49.1385252" lon="2.6257939">
<ele>95.49</ele>
<time>2020-05-17T09:50:59Z</time>
</trkpt>
<trkpt lat="49.1384799" lon="2.6255160">
<ele>96.89</ele>
<time>2020-05-17T09:51:03Z</time>
</trkpt>
<trkpt lat="49.1384659" lon="2.6252289">
<ele>97.01</ele>
<time>2020-05-17T09:51:07Z</time>
</trkpt>
<trkpt lat="49.1384932" lon="2.6249178">
<ele>96.26</ele>
<time>2020-05-17T09:51:11Z</time>
</trkpt>
<trkpt lat="49.1384971" lon="2.6246194">
<ele>93.48</ele>
<time>2020-05-17T09:51:15Z</time>
</trkpt>
<trkpt lat="49.1384890" lon="2.6243328">
<ele>91.94</ele>
<time>2020-05-17T09:51:20Z</time>
</trkpt>
<trkpt lat="49.1383316" lon="2.6245042">
<ele>93.08</ele>
<time>2020-05-17T09:52:01Z</time>
</trkpt>
<trkpt lat="49.1381797" lon="2.6247387">
<ele>88.79</ele>
<time>2020-05-17T09:52:06Z</time>
</trkpt>
<trkpt lat="49.1380208" lon="2.6249421">
<ele>89.90</ele>
<time>2020-05-17T09:52:09Z</time>
</trkpt>
<trkpt lat="49.1378759" lon="2.6251224">
<ele>92.31</ele>
<time>2020-05-17T09:52:13Z</time>
</trkpt>
<trkpt lat="49.1376713" lon="2.6253780">
<ele>90.60</ele>
<time>2020-05-17T09:52:17Z</time>
</trkpt>
<trkpt lat="49.1375291" lon="2.6255786">
<ele>88.99</ele>
<time>2020-05-17T09:52:20Z</time>
</trkpt>
<trkpt lat="49.1373887" lon="2.6257547">
<ele>88.44</ele>
<time>2020-05-17T09:52:23Z</time>
</trkpt>
<trkpt lat="49.1372232" lon="2.6259906">
<ele>86.73</ele>
<time>2020-05-17T09:52:27Z</time>
</trkpt>
<trkpt lat="49.1370997" lon="2.6257586">
<ele>83.36</ele>
<time>2020-05-17T09:52:39Z</time>
</trkpt>
<trkpt lat="49.1370838" lon="2.6254297">
<ele>81.16</ele>
<time>2020-05-17T09:52:44Z</time>
</trkpt>
<trkpt lat="49.1370598" lon="2.6251401">
<ele>79.14</ele>
<time>2020-05-17T09:52:48Z</time>
</trkpt>
<trkpt lat="49.1370327" lon="2.6248438">
<ele>78.56</ele>
<time>2020-05-17T09:52:52Z</time>
</trkpt>
<trkpt lat="49.1370056" lon="2.6245347">
<ele>76.81</ele>
<time>2020-05-17T09:52:57Z</time>
</trkpt>
<trkpt lat="49.1369539" lon="2.6242630">
<ele>78.31</ele>
<time>2020-05-17T09:53:01Z</time>
</trkpt>
<trkpt lat="49.1369547" lon="2.6239823">
<ele>76.71</ele>
<time>2020-05-17T09:53:05Z</time>
</trkpt>
<trkpt lat="49.1369770" lon="2.6236934">
<ele>76.59</ele>
<time>2020-05-17T09:53:10Z</time>
</trkpt>
<trkpt lat="49.1370398" lon="2.6234165">
<ele>76.77</ele>
<time>2020-05-17T09:53:20Z</time>
</trkpt>
<trkpt lat="49.1371013" lon="2.6231549">
<ele>79.99</ele>
<time>2020-05-17T09:53:29Z</time>
</trkpt>
<trkpt lat="49.1370390" lon="2.6234465">
<ele>77.56</ele>
<time>2020-05-17T09:53:44Z</time>
</trkpt>
<trkpt lat="49.1369888" lon="2.6237576">
<ele>78.17</ele>
<time>2020-05-17T09:53:49Z</time>
</trkpt>
<trkpt lat="49.1369580" lon="2.6240890">
<ele>78.10</ele>
<time>2020-05-17T09:53:53Z</time>
</trkpt>
<trkpt lat="49.1369688" lon="2.6244027">
<ele>79.30</ele>
<time>2020-05-17T09:53:57Z</time>
</trkpt>
<trkpt lat="49.1370077" lon="2.6247103">
<ele>78.40</ele>
<time>2020-05-17T09:54:01Z</time>
</trkpt>
<trkpt lat="49.1370543" lon="2.6250420">
<ele>77.81</ele>
<time>2020-05-17T09:54:05Z</time>
</trkpt>
<trkpt lat="49.1370743" lon="2.6254119">
<ele>77.86</ele>
<time>2020-05-17T09:54:09Z</time>
</trkpt>
<trkpt lat="49.1371059" lon="2.6257587">
<ele>78.24</ele>
<time>2020-05-17T09:54:13Z</time>
</trkpt>
<trkpt lat="49.1371437" lon="2.6261036">
<ele>76.23</ele>
<time>2020-05-17T09:54:17Z</time>
</trkpt>
<trkpt lat="49.1371401" lon="2.6263846">
<ele>77.87</ele>
<time>2020-05-17T09:54:21Z</time>
</trkpt>
<trkpt lat="49.1371395" lon="2.6266725">
<ele>78.71</ele>
<time>2020-05-17T09:54:26Z</time>
</trkpt>
<trkpt lat="49.1371592" lon="2.6270132">
<ele>79.22</ele>
<time>2020-05-17T09:54:31Z</time>
</trkpt>
<trkpt lat="49.1371792" lon="2.6273371">
<ele>79.25</ele>
<time>2020-05-17T09:54:36Z</time>
</trkpt>
<trkpt lat="49.1371889" lon="2.6276361">
<ele>78.47</ele>
<time>2020-05-17T09:54:40Z</time>
</trkpt>
<trkpt lat="49.1371884" lon="2.6279290">
<ele>78.42</ele>
<time>2020-05-17T09:54:44Z</time>
</trkpt>
<trkpt lat="49.1372103" lon="2.6282155">
<ele>78.61</ele>
<time>2020-05-17T09:54:48Z</time>
</trkpt>
<trkpt lat="49.1371280" lon="2.6284764">
<ele>80.89</ele>
<time>2020-05-17T09:54:56Z</time>
</trkpt>
<trkpt lat="49.1370172" lon="2.6287210">
<ele>78.77</ele>
<time>2020-05-17T09:55:00Z</time>
</trkpt>
<trkpt lat="49.1369166" lon="2.6289667">
<ele>78.18</ele>
<time>2020-05-17T09:55:03Z</time>
</trkpt>
<trkpt lat="49.1368087" lon="2.6292089">
<ele>78.53</ele>
<time>2020-05-17T09:55:06Z</time>
</trkpt>
<trkpt lat="49.1367012" lon="2.6294695">
<ele>80.54</ele>
<time>2020-05-17T09:55:10Z</time>
</trkpt>
<trkpt lat="49.1366460" lon="2.6297591">
<ele>78.50</ele>
<time>2020-05-17T09:55:14Z</time>
</trkpt>
<trkpt lat="49.1365781" lon="2.6300771">
<ele>79.00</ele>
<time>2020-05-17T09:55:18Z</time>
</trkpt>
<trkpt lat="49.1365172" lon="2.6303968">
<ele>78.56</ele>
<time>2020-05-17T09:55:22Z</time>
</trkpt>
<trkpt lat="49.1364672" lon="2.6306620">
<ele>76.76</ele>
<time>2020-05-17T09:55:25Z</time>
</trkpt>
<trkpt lat="49.1364202" lon="2.6309424">
<ele>76.76</ele>
<time>2020-05-17T09:55:28Z</time>
</trkpt>
<trkpt lat="49.1363722" lon="2.6312078">
<ele>75.90</ele>
<time>2020-05-17T09:55:31Z</time>
</trkpt>
<trkpt lat="49.1362495" lon="2.6314583">
<ele>75.80</ele>
<time>2020-05-17T09:55:35Z</time>
</trkpt>
<trkpt lat="49.1361667" lon="2.6317502">
<ele>75.33</ele>
<time>2020-05-17T09:55:39Z</time>
</trkpt>
<trkpt lat="49.1362928" lon="2.6320564">
<ele>75.13</ele>
<time>2020-05-17T09:55:43Z</time>
</trkpt>
<trkpt lat="49.1363894" lon="2.6323065">
<ele>75.08</ele>
<time>2020-05-17T09:55:46Z</time>
</trkpt>
<trkpt lat="49.1364020" lon="2.6326149">
<ele>75.60</ele>
<time>2020-05-17T09:55:50Z</time>
</trkpt>
<trkpt lat="49.1363193" lon="2.6329317">
<ele>75.05</ele>
<time>2020-05-17T09:55:54Z</time>
</trkpt>
<trkpt lat="49.1362146" lon="2.6331669">
<ele>76.42</ele>
<time>2020-05-17T09:55:57Z</time>
</trkpt>
<trkpt lat="49.1361211" lon="2.6334872">
<ele>77.08</ele>
<time>2020-05-17T09:56:01Z</time>
</trkpt>
<trkpt lat="49.1360173" lon="2.6338099">
<ele>78.47</ele>
<time>2020-05-17T09:56:05Z</time>
</trkpt>
<trkpt lat="49.1358321" lon="2.6339251">
<ele>76.66</ele>
<time>2020-05-17T09:56:09Z</time>
</trkpt>
<trkpt lat="49.1356292" lon="2.6339313">
<ele>76.45</ele>
<time>2020-05-17T09:56:13Z</time>
</trkpt>
<trkpt lat="49.1354772" lon="2.6341209">
<ele>77.13</ele>
<time>2020-05-17T09:56:18Z</time>
</trkpt>
<trkpt lat="49.1354359" lon="2.6344347">
<ele>76.14</ele>
<time>2020-05-17T09:56:23Z</time>
</trkpt>
<trkpt lat="49.1353674" lon="2.6347428">
<ele>74.21</ele>
<time>2020-05-17T09:56:27Z</time>
</trkpt>
<trkpt lat="49.1352359" lon="2.6350387">
<ele>76.93</ele>
<time>2020-05-17T09:56:31Z</time>
</trkpt>
<trkpt lat="49.1351021" lon="2.6353124">
<ele>77.18</ele>
<time>2020-05-17T09:56:35Z</time>
</trkpt>
<trkpt lat="49.1349863" lon="2.6355618">
<ele>77.64</ele>
<time>2020-05-17T09:56:40Z</time>
</trkpt>
<trkpt lat="49.1348502" lon="2.6357791">
<ele>79.73</ele>
<time>2020-05-17T09:56:50Z</time>
</trkpt>
<trkpt lat="49.1347191" lon="2.6360130">
<ele>84.26</ele>
<time>2020-05-17T09:57:08Z</time>
</trkpt>
<trkpt lat="49.1345827" lon="2.6362380">
<ele>85.68</ele>
<time>2020-05-17T09:57:14Z</time>
</trkpt>
<trkpt lat="49.1344558" lon="2.6364615">
<ele>87.03</ele>
<time>2020-05-17T09:57:18Z</time>
</trkpt>
<trkpt lat="49.1343058" lon="2.6366884">
<ele>85.81</ele>
<time>2020-05-17T09:57:22Z</time>
</trkpt>
<trkpt lat="49.1341616" lon="2.6368988">
<ele>86.13</ele>
<time>2020-05-17T09:57:26Z</time>
</trkpt>
<trkpt lat="49.1339843" lon="2.6370598">
<ele>86.63</ele>
<time>2020-05-17T09:57:30Z</time>
</trkpt>
<trkpt lat="49.1338368" lon="2.6372181">
<ele>85.73</ele>
<time>2020-05-17T09:57:34Z</time>
</trkpt>
<trkpt lat="49.1336916" lon="2.6374392">
<ele>86.83</ele>
<time>2020-05-17T09:57:38Z</time>
</trkpt>
<trkpt lat="49.1335636" lon="2.6376810">
<ele>87.95</ele>
<time>2020-05-17T09:57:43Z</time>
</trkpt>
<trkpt lat="49.1334031" lon="2.6378975">
<ele>90.00</ele>
<time>2020-05-17T09:57:51Z</time>
</trkpt>
<trkpt lat="49.1333012" lon="2.6381303">
<ele>89.29</ele>
<time>2020-05-17T09:57:55Z</time>
</trkpt>
<trkpt lat="49.1331724" lon="2.6383426">
<ele>91.41</ele>
<time>2020-05-17T09:58:02Z</time>
</trkpt>
<trkpt lat="49.1333171" lon="2.6380987">
<ele>87.59</ele>
<time>2020-05-17T09:58:11Z</time>
</trkpt>
<trkpt lat="49.1334473" lon="2.6378331">
<ele>88.18</ele>
<time>2020-05-17T09:58:16Z</time>
</trkpt>
<trkpt lat="49.1335692" lon="2.6380762">
<ele>89.51</ele>
<time>2020-05-17T09:58:29Z</time>
</trkpt>
<trkpt lat="49.1336168" lon="2.6383490">
<ele>90.72</ele>
<time>2020-05-17T09:58:33Z</time>
</trkpt>
<trkpt lat="49.1336139" lon="2.6386414">
<ele>92.49</ele>
<time>2020-05-17T09:58:38Z</time>
</trkpt>
<trkpt lat="49.1337123" lon="2.6388961">
<ele>91.97</ele>
<time>2020-05-17T09:58:44Z</time>
</trkpt>
<trkpt lat="49.1337155" lon="2.6392059">
<ele>97.17</ele>
<time>2020-05-17T09:59:26Z</time>
</trkpt>
<trkpt lat="49.1337796" lon="2.6394794">
<ele>96.95</ele>
<time>2020-05-17T09:59:32Z</time>
</trkpt>
<trkpt lat="49.1339187" lon="2.6397108">
<ele>97.33</ele>
<time>2020-05-17T09:59:37Z</time>
</trkpt>
<trkpt lat="49.1340393" lon="2.6399295">
<ele>96.91</ele>
<time>2020-05-17T09:59:41Z</time>
</trkpt>
<trkpt lat="49.1341466" lon="2.6401857">
<ele>98.88</ele>
<time>2020-05-17T09:59:46Z</time>
</trkpt>
<trkpt lat="49.1343077" lon="2.6403217">
<ele>102.14</ele>
<time>2020-05-17T09:59:55Z</time>
</trkpt>
<trkpt lat="49.1343257" lon="2.6406125">
<ele>103.86</ele>
<time>2020-05-17T10:00:05Z</time>
</trkpt>
<trkpt lat="49.1343025" lon="2.6409007">
<ele>105.02</ele>
<time>2020-05-17T10:00:11Z</time>
</trkpt>
<trkpt lat="49.1344395" lon="2.6410998">
<ele>107.15</ele>
<time>2020-05-17T10:00:25Z</time>
</trkpt>
<trkpt lat="49.1342602" lon="2.6411412">
<ele>103.74</ele>
<time>2020-05-17T10:01:19Z</time>
</trkpt>
<trkpt lat="49.1342630" lon="2.6408326">
<ele>102.14</ele>
<time>2020-05-17T10:01:51Z</time>
</trkpt>
<trkpt lat="49.1343554" lon="2.6405701">
<ele>103.51</ele>
<time>2020-05-17T10:01:57Z</time>
</trkpt>
<trkpt lat="49.1345353" lon="2.6405025">
<ele>99.75</ele>
<time>2020-05-17T10:02:09Z</time>
</trkpt>
<trkpt lat="49.1346271" lon="2.6402329">
<ele>96.18</ele>
<time>2020-05-17T10:02:19Z</time>
</trkpt>
<trkpt lat="49.1347377" lon="2.6396202">
<ele>88.58</ele>
<time>2020-05-17T10:02:24Z</time>
</trkpt>
<trkpt lat="49.1347580" lon="2.6392480">
<ele>90.09</ele>
<time>2020-05-17T10:02:26Z</time>
</trkpt>
<trkpt lat="49.1348071" lon="2.6389519">
<ele>88.64</ele>
<time>2020-05-17T10:02:29Z</time>
</trkpt>
<trkpt lat="49.1348329" lon="2.6386164">
<ele>87.62</ele>
<time>2020-05-17T10:02:32Z</time>
</trkpt>
<trkpt lat="49.1348805" lon="2.6382391">
<ele>85.03</ele>
<time>2020-05-17T10:02:35Z</time>
</trkpt>
<trkpt lat="49.1349347" lon="2.6378511">
<ele>85.14</ele>
<time>2020-05-17T10:02:38Z</time>
</trkpt>
<trkpt lat="49.1349662" lon="2.6375732">
<ele>83.93</ele>
<time>2020-05-17T10:02:40Z</time>
</trkpt>
<trkpt lat="49.1350625" lon="2.6373329">
<ele>85.03</ele>
<time>2020-05-17T10:02:46Z</time>
</trkpt>
<trkpt lat="49.1352448" lon="2.6374536">
<ele>83.39</ele>
<time>2020-05-17T10:02:53Z</time>
</trkpt>
<trkpt lat="49.1354290" lon="2.6375682">
<ele>85.14</ele>
<time>2020-05-17T10:09:42Z</time>
</trkpt>
<trkpt lat="49.1356099" lon="2.6376114">
<ele>85.15</ele>
<time>2020-05-17T10:09:47Z</time>
</trkpt>
<trkpt lat="49.1358334" lon="2.6376694">
<ele>85.17</ele>
<time>2020-05-17T10:09:52Z</time>
</trkpt>
<trkpt lat="49.1360528" lon="2.6377399">
<ele>85.99</ele>
<time>2020-05-17T10:09:57Z</time>
</trkpt>
<trkpt lat="49.1362727" lon="2.6377954">
<ele>86.23</ele>
<time>2020-05-17T10:10:02Z</time>
</trkpt>
<trkpt lat="49.1364639" lon="2.6378652">
<ele>86.23</ele>
<time>2020-05-17T10:10:06Z</time>
</trkpt>
<trkpt lat="49.1366607" lon="2.6379226">
<ele>88.21</ele>
<time>2020-05-17T10:10:12Z</time>
</trkpt>
<trkpt lat="49.1368718" lon="2.6379756">
<ele>86.57</ele>
<time>2020-05-17T10:10:17Z</time>
</trkpt>
<trkpt lat="49.1370517" lon="2.6380136">
<ele>86.96</ele>
<time>2020-05-17T10:10:19Z</time>
</trkpt>
<trkpt lat="49.1372759" lon="2.6380224">
<ele>88.75</ele>
<time>2020-05-17T10:10:22Z</time>
</trkpt>
<trkpt lat="49.1374775" lon="2.6380746">
<ele>88.91</ele>
<time>2020-05-17T10:10:26Z</time>
</trkpt>
<trkpt lat="49.1376949" lon="2.6381322">
<ele>87.03</ele>
<time>2020-05-17T10:10:30Z</time>
</trkpt>
<trkpt lat="49.1378744" lon="2.6381605">
<ele>84.91</ele>
<time>2020-05-17T10:10:34Z</time>
</trkpt>
<trkpt lat="49.1380603" lon="2.6382104">
<ele>85.16</ele>
<time>2020-05-17T10:10:38Z</time>
</trkpt>
<trkpt lat="49.1382422" lon="2.6382808">
<ele>84.52</ele>
<time>2020-05-17T10:10:43Z</time>
</trkpt>
<trkpt lat="49.1384403" lon="2.6382381">
<ele>87.26</ele>
<time>2020-05-17T10:10:50Z</time>
</trkpt>
<trkpt lat="49.1386018" lon="2.6380513">
<ele>88.56</ele>
<time>2020-05-17T10:10:55Z</time>
</trkpt>
<trkpt lat="49.1387349" lon="2.6377819">
<ele>87.63</ele>
<time>2020-05-17T10:10:59Z</time>
</trkpt>
<trkpt lat="49.1388449" lon="2.6375555">
<ele>87.02</ele>
<time>2020-05-17T10:11:02Z</time>
</trkpt>
<trkpt lat="49.1389824" lon="2.6372677">
<ele>86.75</ele>
<time>2020-05-17T10:11:06Z</time>
</trkpt>
<trkpt lat="49.1390869" lon="2.6370028">
<ele>84.95</ele>
<time>2020-05-17T10:11:10Z</time>
</trkpt>
<trkpt lat="49.1391893" lon="2.6367381">
<ele>85.74</ele>
<time>2020-05-17T10:11:16Z</time>
</trkpt>
<trkpt lat="49.1392963" lon="2.6364865">
<ele>86.19</ele>
<time>2020-05-17T10:11:21Z</time>
</trkpt>
<trkpt lat="49.1394259" lon="2.6362763">
<ele>87.53</ele>
<time>2020-05-17T10:11:27Z</time>
</trkpt>
<trkpt lat="49.1396062" lon="2.6361278">
<ele>91.25</ele>
<time>2020-05-17T10:11:35Z</time>
</trkpt>
<trkpt lat="49.1398021" lon="2.6362212">
<ele>90.99</ele>
<time>2020-05-17T10:12:07Z</time>
</trkpt>
<trkpt lat="49.1400130" lon="2.6362649">
<ele>90.48</ele>
<time>2020-05-17T10:12:14Z</time>
</trkpt>
<trkpt lat="49.1402125" lon="2.6363608">
<ele>92.01</ele>
<time>2020-05-17T10:12:27Z</time>
</trkpt>
<trkpt lat="49.1404079" lon="2.6363410">
<ele>92.85</ele>
<time>2020-05-17T10:12:53Z</time>
</trkpt>
<trkpt lat="49.1405873" lon="2.6363755">
<ele>92.15</ele>
<time>2020-05-17T10:13:14Z</time>
</trkpt>
<trkpt lat="49.1404025" lon="2.6363491">
<ele>92.30</ele>
<time>2020-05-17T10:13:44Z</time>
</trkpt>
<trkpt lat="49.1402747" lon="2.6365451">
<ele>92.46</ele>
<time>2020-05-17T10:13:57Z</time>
</trkpt>
<trkpt lat="49.1401605" lon="2.6367803">
<ele>92.28</ele>
<time>2020-05-17T10:14:09Z</time>
</trkpt>
<trkpt lat="49.1401599" lon="2.6370752">
<ele>91.39</ele>
<time>2020-05-17T10:14:28Z</time>
</trkpt>
<trkpt lat="49.1402409" lon="2.6373227">
<ele>90.77</ele>
<time>2020-05-17T10:14:37Z</time>
</trkpt>
<trkpt lat="49.1403311" lon="2.6375616">
<ele>89.71</ele>
<time>2020-05-17T10:14:41Z</time>
</trkpt>
<trkpt lat="49.1403501" lon="2.6378560">
<ele>86.77</ele>
<time>2020-05-17T10:14:49Z</time>
</trkpt>
<trkpt lat="49.1403695" lon="2.6381328">
<ele>84.81</ele>
<time>2020-05-17T10:15:00Z</time>
</trkpt>
<trkpt lat="49.1405558" lon="2.6381569">
<ele>87.49</ele>
<time>2020-05-17T10:15:06Z</time>
</trkpt>
<trkpt lat="49.1407618" lon="2.6382080">
<ele>89.19</ele>
<time>2020-05-17T10:15:11Z</time>
</trkpt>
<trkpt lat="49.1409453" lon="2.6382284">
<ele>87.09</ele>
<time>2020-05-17T10:15:16Z</time>
</trkpt>
<trkpt lat="49.1411318" lon="2.6382082">
<ele>85.96</ele>
<time>2020-05-17T10:15:23Z</time>
</trkpt>
<trkpt lat="49.1413316" lon="2.6381958">
<ele>86.43</ele>
<time>2020-05-17T10:15:27Z</time>
</trkpt>
<trkpt lat="49.1415162" lon="2.6381832">
<ele>86.64</ele>
<time>2020-05-17T10:15:33Z</time>
</trkpt>
<trkpt lat="49.1417166" lon="2.6381656">
<ele>88.73</ele>
<time>2020-05-17T10:15:37Z</time>
</trkpt>
<trkpt lat="49.1418468" lon="2.6379445">
<ele>89.45</ele>
<time>2020-05-17T10:15:55Z</time>
</trkpt>
<trkpt lat="49.1418928" lon="2.6376776">
<ele>90.15</ele>
<time>2020-05-17T10:16:02Z</time>
</trkpt>
<trkpt lat="49.1418810" lon="2.6373916">
<ele>89.30</ele>
<time>2020-05-17T10:16:08Z</time>
</trkpt>
<trkpt lat="49.1419094" lon="2.6370615">
<ele>92.12</ele>
<time>2020-05-17T10:16:14Z</time>
</trkpt>
<trkpt lat="49.1418924" lon="2.6367771">
<ele>90.15</ele>
<time>2020-05-17T10:16:19Z</time>
</trkpt>
<trkpt lat="49.1418980" lon="2.6364527">
<ele>91.34</ele>
<time>2020-05-17T10:16:27Z</time>
</trkpt>
<trkpt lat="49.1419152" lon="2.6361672">
<ele>96.49</ele>
<time>2020-05-17T10:16:30Z</time>
</trkpt>
<trkpt lat="49.1418984" lon="2.6358691">
<ele>93.08</ele>
<time>2020-05-17T10:16:38Z</time>
</trkpt>
<trkpt lat="49.1418968" lon="2.6355690">
<ele>93.70</ele>
<time>2020-05-17T10:16:44Z</time>
</trkpt>
<trkpt lat="49.1419145" lon="2.6352557">
<ele>95.30</ele>
<time>2020-05-17T10:16:49Z</time>
</trkpt>
<trkpt lat="49.1419458" lon="2.6349794">
<ele>95.21</ele>
<time>2020-05-17T10:16:56Z</time>
</trkpt>
<trkpt lat="49.1419498" lon="2.6346875">
<ele>97.08</ele>
<time>2020-05-17T10:17:00Z</time>
</trkpt>
<trkpt lat="49.1419342" lon="2.6344072">
<ele>96.37</ele>
<time>2020-05-17T10:17:08Z</time>
</trkpt>
<trkpt lat="49.1419095" lon="2.6340997">
<ele>98.81</ele>
<time>2020-05-17T10:17:12Z</time>
</trkpt>
<trkpt lat="49.1419220" lon="2.6337978">
<ele>102.46</ele>
<time>2020-05-17T10:17:21Z</time>
</trkpt>
<trkpt lat="49.1419560" lon="2.6335245">
<ele>101.31</ele>
<time>2020-05-17T10:17:26Z</time>
</trkpt>
<trkpt lat="49.1419825" lon="2.6331947">
<ele>98.73</ele>
<time>2020-05-17T10:17:30Z</time>
</trkpt>
<trkpt lat="49.1419703" lon="2.6329150">
<ele>99.01</ele>
<time>2020-05-17T10:17:33Z</time>
</trkpt>
<trkpt lat="49.1419622" lon="2.6325768">
<ele>97.74</ele>
<time>2020-05-17T10:17:36Z</time>
</trkpt>
<trkpt lat="49.1419962" lon="2.6322819">
<ele>96.20</ele>
<time>2020-05-17T10:17:39Z</time>
</trkpt>
<trkpt lat="49.1419941" lon="2.6319707">
<ele>94.16</ele>
<time>2020-05-17T10:17:42Z</time>
</trkpt>
<trkpt lat="49.1420127" lon="2.6316776">
<ele>91.97</ele>
<time>2020-05-17T10:17:45Z</time>
</trkpt>
<trkpt lat="49.1419977" lon="2.6313944">
<ele>91.93</ele>
<time>2020-05-17T10:17:48Z</time>
</trkpt>
<trkpt lat="49.1419819" lon="2.6310477">
<ele>92.60</ele>
<time>2020-05-17T10:17:53Z</time>
</trkpt>
<trkpt lat="49.1419634" lon="2.6307667">
<ele>93.43</ele>
<time>2020-05-17T10:17:58Z</time>
</trkpt>
<trkpt lat="49.1421597" lon="2.6307535">
<ele>91.18</ele>
<time>2020-05-17T10:18:44Z</time>
</trkpt>
<trkpt lat="49.1423425" lon="2.6306943">
<ele>93.84</ele>
<time>2020-05-17T10:18:52Z</time>
</trkpt>
<trkpt lat="49.1425198" lon="2.6306120">
<ele>102.66</ele>
<time>2020-05-17T10:19:00Z</time>
</trkpt>
<trkpt lat="49.1427029" lon="2.6306369">
<ele>109.99</ele>
<time>2020-05-17T10:19:11Z</time>
</trkpt>
<trkpt lat="49.1428898" lon="2.6305815">
<ele>107.59</ele>
<time>2020-05-17T10:19:22Z</time>
</trkpt>
<trkpt lat="49.1428031" lon="2.6302925">
<ele>106.53</ele>
<time>2020-05-17T10:19:33Z</time>
</trkpt>
<trkpt lat="49.1427451" lon="2.6300112">
<ele>106.36</ele>
<time>2020-05-17T10:19:39Z</time>
</trkpt>
<trkpt lat="49.1427260" lon="2.6297326">
<ele>107.47</ele>
<time>2020-05-17T10:19:43Z</time>
</trkpt>
<trkpt lat="49.1427122" lon="2.6294149">
<ele>107.03</ele>
<time>2020-05-17T10:19:47Z</time>
</trkpt>
<trkpt lat="49.1426152" lon="2.6291171">
<ele>106.77</ele>
<time>2020-05-17T10:19:51Z</time>
</trkpt>
<trkpt lat="49.1424956" lon="2.6288560">
<ele>107.03</ele>
<time>2020-05-17T10:19:55Z</time>
</trkpt>
<trkpt lat="49.1423878" lon="2.6285890">
<ele>108.67</ele>
<time>2020-05-17T10:19:59Z</time>
</trkpt>
<trkpt lat="49.1422774" lon="2.6282978">
<ele>109.48</ele>
<time>2020-05-17T10:20:03Z</time>
</trkpt>
<trkpt lat="49.1421628" lon="2.6280161">
<ele>109.63</ele>
<time>2020-05-17T10:20:07Z</time>
</trkpt>
<trkpt lat="49.1420699" lon="2.6277717">
<ele>110.88</ele>
<time>2020-05-17T10:20:12Z</time>
</trkpt>
<trkpt lat="49.1421405" lon="2.6275176">
<ele>112.72</ele>
<time>2020-05-17T10:20:31Z</time>
</trkpt>
<trkpt lat="49.1422230" lon="2.6272297">
<ele>112.45</ele>
<time>2020-05-17T10:20:40Z</time>
</trkpt>
<trkpt lat="49.1423193" lon="2.6269670">
<ele>113.64</ele>
<time>2020-05-17T10:20:46Z</time>
</trkpt>
<trkpt lat="49.1424048" lon="2.6266784">
<ele>113.51</ele>
<time>2020-05-17T10:20:51Z</time>
</trkpt>
<trkpt lat="49.1425042" lon="2.6263975">
<ele>113.09</ele>
<time>2020-05-17T10:20:56Z</time>
</trkpt>
<trkpt lat="49.1426228" lon="2.6261258">
<ele>111.50</ele>
<time>2020-05-17T10:21:01Z</time>
</trkpt>
<trkpt lat="49.1427002" lon="2.6258136">
<ele>105.22</ele>
<time>2020-05-17T10:21:06Z</time>
</trkpt>
<trkpt lat="49.1427794" lon="2.6255572">
<ele>104.58</ele>
<time>2020-05-17T10:21:11Z</time>
</trkpt>
<trkpt lat="49.1428720" lon="2.6252971">
<ele>105.34</ele>
<time>2020-05-17T10:21:20Z</time>
</trkpt>
<trkpt lat="49.1429677" lon="2.6250144">
<ele>102.97</ele>
<time>2020-05-17T10:21:25Z</time>
</trkpt>
<trkpt lat="49.1430791" lon="2.6246919">
<ele>102.07</ele>
<time>2020-05-17T10:21:29Z</time>
</trkpt>
<trkpt lat="49.1431744" lon="2.6243858">
<ele>99.31</ele>
<time>2020-05-17T10:21:33Z</time>
</trkpt>
<trkpt lat="49.1432420" lon="2.6240952">
<ele>103.18</ele>
<time>2020-05-17T10:21:36Z</time>
</trkpt>
<trkpt lat="49.1432712" lon="2.6237573">
<ele>105.25</ele>
<time>2020-05-17T10:21:41Z</time>
</trkpt>
<trkpt lat="49.1431737" lon="2.6234586">
<ele>102.59</ele>
<time>2020-05-17T10:21:45Z</time>
</trkpt>
<trkpt lat="49.1430439" lon="2.6231676">
<ele>101.14</ele>
<time>2020-05-17T10:21:49Z</time>
</trkpt>
<trkpt lat="49.1429423" lon="2.6229277">
<ele>100.63</ele>
<time>2020-05-17T10:21:52Z</time>
</trkpt>
<trkpt lat="49.1428216" lon="2.6226312">
<ele>106.41</ele>
<time>2020-05-17T10:21:56Z</time>
</trkpt>
<trkpt lat="49.1427246" lon="2.6223956">
<ele>107.50</ele>
<time>2020-05-17T10:21:59Z</time>
</trkpt>
<trkpt lat="49.1426172" lon="2.6221461">
<ele>106.93</ele>
<time>2020-05-17T10:22:02Z</time>
</trkpt>
<trkpt lat="49.1425159" lon="2.6219174">
<ele>106.27</ele>
<time>2020-05-17T10:22:05Z</time>
</trkpt>
<trkpt lat="49.1423942" lon="2.6216644">
<ele>103.54</ele>
<time>2020-05-17T10:22:12Z</time>
</trkpt>
<trkpt lat="49.1422809" lon="2.6214340">
<ele>98.92</ele>
<time>2020-05-17T10:22:17Z</time>
</trkpt>
<trkpt lat="49.1421205" lon="2.6212489">
<ele>95.97</ele>
<time>2020-05-17T10:22:22Z</time>
</trkpt>
<trkpt lat="49.1420142" lon="2.6209788">
<ele>93.38</ele>
<time>2020-05-17T10:22:27Z</time>
</trkpt>
<trkpt lat="49.1418941" lon="2.6206890">
<ele>92.69</ele>
<time>2020-05-17T10:22:31Z</time>
</trkpt>
<trkpt lat="49.1417909" lon="2.6204604">
<ele>92.82</ele>
<time>2020-05-17T10:22:34Z</time>
</trkpt>
<trkpt lat="49.1417238" lon="2.6201765">
<ele>90.01</ele>
<time>2020-05-17T10:22:37Z</time>
</trkpt>
<trkpt lat="49.1416765" lon="2.6198842">
<ele>88.79</ele>
<time>2020-05-17T10:22:40Z</time>
</trkpt>
<trkpt lat="49.1414679" lon="2.6197512">
<ele>89.72</ele>
<time>2020-05-17T10:22:44Z</time>
</trkpt>
<trkpt lat="49.1412792" lon="2.6198268">
<ele>90.98</ele>
<time>2020-05-17T10:23:27Z</time>
</trkpt>
<trkpt lat="49.1411066" lon="2.6199390">
<ele>93.38</ele>
<time>2020-05-17T10:23:34Z</time>
</trkpt>
<trkpt lat="49.1409197" lon="2.6200246">
<ele>94.61</ele>
<time>2020-05-17T10:23:41Z</time>
</trkpt>
<trkpt lat="49.1407596" lon="2.6201791">
<ele>100.74</ele>
<time>2020-05-17T10:23:48Z</time>
</trkpt>
<trkpt lat="49.1405787" lon="2.6202964">
<ele>103.50</ele>
<time>2020-05-17T10:23:55Z</time>
</trkpt>
<trkpt lat="49.1404003" lon="2.6204333">
<ele>107.43</ele>
<time>2020-05-17T10:24:02Z</time>
</trkpt>
<trkpt lat="49.1402083" lon="2.6205614">
<ele>107.07</ele>
<time>2020-05-17T10:24:06Z</time>
</trkpt>
<trkpt lat="49.1400359" lon="2.6206819">
<ele>108.33</ele>
<time>2020-05-17T10:24:10Z</time>
</trkpt>
<trkpt lat="49.1398775" lon="2.6208276">
<ele>108.63</ele>
<time>2020-05-17T10:24:15Z</time>
</trkpt>
<trkpt lat="49.1397001" lon="2.6209753">
<ele>108.63</ele>
<time>2020-05-17T10:24:19Z</time>
</trkpt>
<trkpt lat="49.1395157" lon="2.6210837">
<ele>108.06</ele>
<time>2020-05-17T10:24:24Z</time>
</trkpt>
<trkpt lat="49.1393327" lon="2.6212231">
<ele>104.34</ele>
<time>2020-05-17T10:24:28Z</time>
</trkpt>
<trkpt lat="49.1391684" lon="2.6213595">
<ele>102.34</ele>
<time>2020-05-17T10:24:32Z</time>
</trkpt>
<trkpt lat="49.1389572" lon="2.6215082">
<ele>102.67</ele>
<time>2020-05-17T10:24:37Z</time>
</trkpt>
<trkpt lat="49.1387778" lon="2.6216439">
<ele>108.77</ele>
<time>2020-05-17T10:24:57Z</time>
</trkpt>
<trkpt lat="49.1386065" lon="2.6215568">
<ele>103.85</ele>
<time>2020-05-17T10:25:02Z</time>
</trkpt>
<trkpt lat="49.1383921" lon="2.6214528">
<ele>101.44</ele>
<time>2020-05-17T10:25:06Z</time>
</trkpt>
<trkpt lat="49.1381900" lon="2.6214133">
<ele>98.93</ele>
<time>2020-05-17T10:25:09Z</time>
</trkpt>
<trkpt lat="49.1380028" lon="2.6213357">
<ele>96.94</ele>
<time>2020-05-17T10:25:12Z</time>
</trkpt>
<trkpt lat="49.1378111" lon="2.6212314">
<ele>92.53</ele>
<time>2020-05-17T10:25:15Z</time>
</trkpt>
<trkpt lat="49.1375838" lon="2.6211575">
<ele>89.92</ele>
<time>2020-05-17T10:25:18Z</time>
</trkpt>
<trkpt lat="49.1374135" lon="2.6210266">
<ele>84.57</ele>
<time>2020-05-17T10:25:23Z</time>
</trkpt>
<trkpt lat="49.1373008" lon="2.6212881">
<ele>91.11</ele>
<time>2020-05-17T10:26:16Z</time>
</trkpt>
<trkpt lat="49.1372480" lon="2.6215599">
<ele>88.01</ele>
<time>2020-05-17T10:26:21Z</time>
</trkpt>
<trkpt lat="49.1372429" lon="2.6218347">
<ele>86.80</ele>
<time>2020-05-17T10:26:25Z</time>
</trkpt>
<trkpt lat="49.1372175" lon="2.6221109">
<ele>83.13</ele>
<time>2020-05-17T10:26:29Z</time>
</trkpt>
<trkpt lat="49.1371930" lon="2.6224007">
<ele>80.71</ele>
<time>2020-05-17T10:26:33Z</time>
</trkpt>
<trkpt lat="49.1371343" lon="2.6227336">
<ele>80.98</ele>
<time>2020-05-17T10:26:37Z</time>
</trkpt>
<trkpt lat="49.1370682" lon="2.6230039">
<ele>80.06</ele>
<time>2020-05-17T10:26:42Z</time>
</trkpt>
<trkpt lat="49.1372041" lon="2.6232457">
<ele>80.04</ele>
<time>2020-05-17T10:26:48Z</time>
</trkpt>
<trkpt lat="49.1373778" lon="2.6233637">
<ele>82.53</ele>
<time>2020-05-17T10:26:52Z</time>
</trkpt>
<trkpt lat="49.1375341" lon="2.6235307">
<ele>84.28</ele>
<time>2020-05-17T10:26:57Z</time>
</trkpt>
<trkpt lat="49.1376742" lon="2.6237145">
<ele>83.34</ele>
<time>2020-05-17T10:27:03Z</time>
</trkpt>
<trkpt lat="49.1378385" lon="2.6238659">
<ele>85.83</ele>
<time>2020-05-17T10:27:09Z</time>
</trkpt>
<trkpt lat="49.1380094" lon="2.6240107">
<ele>88.52</ele>
<time>2020-05-17T10:27:16Z</time>
</trkpt>
<trkpt lat="49.1381767" lon="2.6241811">
<ele>93.34</ele>
<time>2020-05-17T10:27:24Z</time>
</trkpt>
<trkpt lat="49.1383625" lon="2.6242655">
<ele>99.02</ele>
<time>2020-05-17T10:27:33Z</time>
</trkpt>
<trkpt lat="49.1383012" lon="2.6245384">
<ele>98.00</ele>
<time>2020-05-17T10:27:46Z</time>
</trkpt>
<trkpt lat="49.1381262" lon="2.6247895">
<ele>98.08</ele>
<time>2020-05-17T10:27:52Z</time>
</trkpt>
<trkpt lat="49.1379823" lon="2.6249978">
<ele>96.53</ele>
<time>2020-05-17T10:27:55Z</time>
</trkpt>
<trkpt lat="49.1378023" lon="2.6252135">
<ele>96.06</ele>
<time>2020-05-17T10:28:00Z</time>
</trkpt>
<trkpt lat="49.1376613" lon="2.6254241">
<ele>91.23</ele>
<time>2020-05-17T10:28:03Z</time>
</trkpt>
<trkpt lat="49.1375082" lon="2.6256619">
<ele>88.07</ele>
<time>2020-05-17T10:28:06Z</time>
</trkpt>
<trkpt lat="49.1373299" lon="2.6258429">
<ele>85.88</ele>
<time>2020-05-17T10:28:09Z</time>
</trkpt>
<trkpt lat="49.1371874" lon="2.6260298">
<ele>85.15</ele>
<time>2020-05-17T10:28:12Z</time>
</trkpt>
<trkpt lat="49.1371389" lon="2.6263183">
<ele>86.41</ele>
<time>2020-05-17T10:28:19Z</time>
</trkpt>
<trkpt lat="49.1371279" lon="2.6266430">
<ele>85.02</ele>
<time>2020-05-17T10:28:25Z</time>
</trkpt>
<trkpt lat="49.1371318" lon="2.6269556">
<ele>85.32</ele>
<time>2020-05-17T10:28:30Z</time>
</trkpt>
<trkpt lat="49.1371486" lon="2.6272727">
<ele>86.45</ele>
<time>2020-05-17T10:28:35Z</time>
</trkpt>
<trkpt lat="49.1371471" lon="2.6276175">
<ele>85.06</ele>
<time>2020-05-17T10:28:40Z</time>
</trkpt>
<trkpt lat="49.1371484" lon="2.6278927">
<ele>84.65</ele>
<time>2020-05-17T10:28:44Z</time>
</trkpt>
<trkpt lat="49.1371800" lon="2.6281773">
<ele>84.76</ele>
<time>2020-05-17T10:28:48Z</time>
</trkpt>
<trkpt lat="49.1371268" lon="2.6284659">
<ele>84.06</ele>
<time>2020-05-17T10:28:57Z</time>
</trkpt>
<trkpt lat="49.1369908" lon="2.6287565">
<ele>82.81</ele>
<time>2020-05-17T10:29:02Z</time>
</trkpt>
<trkpt lat="49.1369065" lon="2.6290261">
<ele>82.50</ele>
<time>2020-05-17T10:29:06Z</time>
</trkpt>
<trkpt lat="49.1368139" lon="2.6292812">
<ele>85.22</ele>
<time>2020-05-17T10:29:13Z</time>
</trkpt>
<trkpt lat="49.1367006" lon="2.6295633">
<ele>84.76</ele>
<time>2020-05-17T10:29:17Z</time>
</trkpt>
<trkpt lat="49.1366577" lon="2.6298529">
<ele>83.54</ele>
<time>2020-05-17T10:29:21Z</time>
</trkpt>
<trkpt lat="49.1365893" lon="2.6301532">
<ele>84.45</ele>
<time>2020-05-17T10:29:25Z</time>
</trkpt>
<trkpt lat="49.1364970" lon="2.6304881">
<ele>84.12</ele>
<time>2020-05-17T10:29:29Z</time>
</trkpt>
<trkpt lat="49.1364406" lon="2.6308139">
<ele>83.30</ele>
<time>2020-05-17T10:29:33Z</time>
</trkpt>
<trkpt lat="49.1363673" lon="2.6310733">
<ele>81.70</ele>
<time>2020-05-17T10:29:36Z</time>
</trkpt>
<trkpt lat="49.1363311" lon="2.6313541">
<ele>84.19</ele>
<time>2020-05-17T10:29:40Z</time>
</trkpt>
<trkpt lat="49.1363301" lon="2.6316798">
<ele>85.11</ele>
<time>2020-05-17T10:29:44Z</time>
</trkpt>
<trkpt lat="49.1363915" lon="2.6319791">
<ele>85.08</ele>
<time>2020-05-17T10:29:48Z</time>
</trkpt>
<trkpt lat="49.1364447" lon="2.6322961">
<ele>83.92</ele>
<time>2020-05-17T10:29:53Z</time>
</trkpt>
<trkpt lat="49.1363844" lon="2.6325886">
<ele>83.64</ele>
<time>2020-05-17T10:29:57Z</time>
</trkpt>
<trkpt lat="49.1363181" lon="2.6328911">
<ele>83.43</ele>
<time>2020-05-17T10:30:01Z</time>
</trkpt>
<trkpt lat="49.1362004" lon="2.6331830">
<ele>83.43</ele>
<time>2020-05-17T10:30:05Z</time>
</trkpt>
<trkpt lat="49.1361065" lon="2.6334747">
<ele>83.84</ele>
<time>2020-05-17T10:30:09Z</time>
</trkpt>
<trkpt lat="49.1360207" lon="2.6338044">
<ele>82.99</ele>
<time>2020-05-17T10:30:13Z</time>
</trkpt>
<trkpt lat="49.1358203" lon="2.6339061">
<ele>83.17</ele>
<time>2020-05-17T10:30:17Z</time>
</trkpt>
<trkpt lat="49.1356058" lon="2.6339080">
<ele>83.85</ele>
<time>2020-05-17T10:30:22Z</time>
</trkpt>
<trkpt lat="49.1354713" lon="2.6341185">
<ele>81.23</ele>
<time>2020-05-17T10:30:26Z</time>
</trkpt>
<trkpt lat="49.1353980" lon="2.6343788">
<ele>81.10</ele>
<time>2020-05-17T10:30:29Z</time>
</trkpt>
<trkpt lat="49.1353857" lon="2.6347028">
<ele>80.20</ele>
<time>2020-05-17T10:30:33Z</time>
</trkpt>
<trkpt lat="49.1352775" lon="2.6349633">
<ele>80.28</ele>
<time>2020-05-17T10:30:37Z</time>
</trkpt>
<trkpt lat="49.1351332" lon="2.6351820">
<ele>81.73</ele>
<time>2020-05-17T10:30:41Z</time>
</trkpt>
<trkpt lat="49.1350628" lon="2.6354421">
<ele>81.73</ele>
<time>2020-05-17T10:30:45Z</time>
</trkpt>
<trkpt lat="49.1349416" lon="2.6356611">
<ele>82.92</ele>
<time>2020-05-17T10:30:49Z</time>
</trkpt>
<trkpt lat="49.1348046" lon="2.6358734">
<ele>83.26</ele>
<time>2020-05-17T10:30:53Z</time>
</trkpt>
<trkpt lat="49.1346776" lon="2.6361157">
<ele>84.72</ele>
<time>2020-05-17T10:30:57Z</time>
</trkpt>
<trkpt lat="49.1345523" lon="2.6363748">
<ele>85.30</ele>
<time>2020-05-17T10:31:02Z</time>
</trkpt>
<trkpt lat="49.1343906" lon="2.6366095">
<ele>88.33</ele>
<time>2020-05-17T10:31:07Z</time>
</trkpt>
<trkpt lat="49.1342406" lon="2.6368311">
<ele>88.65</ele>
<time>2020-05-17T10:31:11Z</time>
</trkpt>
<trkpt lat="49.1340821" lon="2.6369753">
<ele>87.07</ele>
<time>2020-05-17T10:31:14Z</time>
</trkpt>
<trkpt lat="49.1338893" lon="2.6371879">
<ele>86.95</ele>
<time>2020-05-17T10:31:18Z</time>
</trkpt>
<trkpt lat="49.1337111" lon="2.6374005">
<ele>87.45</ele>
<time>2020-05-17T10:31:22Z</time>
</trkpt>
<trkpt lat="49.1336112" lon="2.6376762">
<ele>87.44</ele>
<time>2020-05-17T10:31:27Z</time>
</trkpt>
<trkpt lat="49.1336009" lon="2.6379724">
<ele>88.74</ele>
<time>2020-05-17T10:31:32Z</time>
</trkpt>
<trkpt lat="49.1336257" lon="2.6383104">
<ele>91.30</ele>
<time>2020-05-17T10:31:37Z</time>
</trkpt>
<trkpt lat="49.1336313" lon="2.6385874">
<ele>91.57</ele>
<time>2020-05-17T10:31:42Z</time>
</trkpt>
<trkpt lat="49.1337001" lon="2.6388624">
<ele>90.00</ele>
<time>2020-05-17T10:31:48Z</time>
</trkpt>
<trkpt lat="49.1336975" lon="2.6391479">
<ele>93.65</ele>
<time>2020-05-17T10:31:54Z</time>
</trkpt>
<trkpt lat="49.1337364" lon="2.6394431">
<ele>101.38</ele>
<time>2020-05-17T10:32:02Z</time>
</trkpt>
<trkpt lat="49.1338643" lon="2.6396552">
<ele>100.61</ele>
<time>2020-05-17T10:32:08Z</time>
</trkpt>
<trkpt lat="49.1340193" lon="2.6398450">
<ele>99.37</ele>
<time>2020-05-17T10:32:13Z</time>
</trkpt>
<trkpt lat="49.1341114" lon="2.6401314">
<ele>100.02</ele>
<time>2020-05-17T10:32:19Z</time>
</trkpt>
<trkpt lat="49.1342630" lon="2.6402983">
<ele>100.24</ele>
<time>2020-05-17T10:32:40Z</time>
</trkpt>
<trkpt lat="49.1342970" lon="2.6405690">
<ele>99.28</ele>
<time>2020-05-17T10:32:50Z</time>
</trkpt>
<trkpt lat="49.1342748" lon="2.6408522">
<ele>100.16</ele>
<time>2020-05-17T10:32:56Z</time>
</trkpt>
<trkpt lat="49.1342345" lon="2.6411352">
<ele>102.25</ele>
<time>2020-05-17T10:33:04Z</time>
</trkpt>
<trkpt lat="49.1341024" lon="2.6413653">
<ele>102.00</ele>
<time>2020-05-17T10:33:12Z</time>
</trkpt>
<trkpt lat="49.1340038" lon="2.6416000">
<ele>109.24</ele>
<time>2020-05-17T10:33:26Z</time>
</trkpt>
<trkpt lat="49.1338862" lon="2.6418435">
<ele>109.48</ele>
<time>2020-05-17T10:33:34Z</time>
</trkpt>
<trkpt lat="49.1338107" lon="2.6421389">
<ele>110.46</ele>
<time>2020-05-17T10:33:39Z</time>
</trkpt>
<trkpt lat="49.1337786" lon="2.6424174">
<ele>107.78</ele>
<time>2020-05-17T10:33:45Z</time>
</trkpt>
<trkpt lat="49.1339369" lon="2.6426452">
<ele>106.08</ele>
<time>2020-05-17T10:33:52Z</time>
</trkpt>
<trkpt lat="49.1340844" lon="2.6428178">
<ele>108.23</ele>
<time>2020-05-17T10:33:56Z</time>
</trkpt>
<trkpt lat="49.1342137" lon="2.6430331">
<ele>105.81</ele>
<time>2020-05-17T10:34:00Z</time>
</trkpt>
<trkpt lat="49.1342849" lon="2.6433049">
<ele>107.35</ele>
<time>2020-05-17T10:34:04Z</time>
</trkpt>
<trkpt lat="49.1343780" lon="2.6435896">
<ele>105.82</ele>
<time>2020-05-17T10:34:08Z</time>
</trkpt>
<trkpt lat="49.1344611" lon="2.6438529">
<ele>105.81</ele>
<time>2020-05-17T10:34:10Z</time>
</trkpt>
<trkpt lat="49.1345009" lon="2.6441257">
<ele>107.40</ele>
<time>2020-05-17T10:34:14Z</time>
</trkpt>
<trkpt lat="49.1345762" lon="2.6444047">
<ele>105.08</ele>
<time>2020-05-17T10:34:21Z</time>
</trkpt>
<trkpt lat="49.1346242" lon="2.6447040">
<ele>105.48</ele>
<time>2020-05-17T10:34:24Z</time>
</trkpt>
<trkpt lat="49.1346639" lon="2.6451206">
<ele>105.79</ele>
<time>2020-05-17T10:34:27Z</time>
</trkpt>
<trkpt lat="49.1347251" lon="2.6454723">
<ele>107.63</ele>
<time>2020-05-17T10:34:30Z</time>
</trkpt>
<trkpt lat="49.1348043" lon="2.6457828">
<ele>107.43</ele>
<time>2020-05-17T10:34:34Z</time>
</trkpt>
<trkpt lat="49.1348187" lon="2.6460807">
<ele>107.02</ele>
<time>2020-05-17T10:34:39Z</time>
</trkpt>
<trkpt lat="49.1346559" lon="2.6464581">
<ele>106.12</ele>
<time>2020-05-17T10:34:46Z</time>
</trkpt>
<trkpt lat="49.1345377" lon="2.6466748">
<ele>105.44</ele>
<time>2020-05-17T10:34:48Z</time>
</trkpt>
<trkpt lat="49.1344082" lon="2.6469356">
<ele>103.71</ele>
<time>2020-05-17T10:34:52Z</time>
</trkpt>
<trkpt lat="49.1342932" lon="2.6471693">
<ele>99.32</ele>
<time>2020-05-17T10:35:02Z</time>
</trkpt>
<trkpt lat="49.1341707" lon="2.6474181">
<ele>104.60</ele>
<time>2020-05-17T10:35:04Z</time>
</trkpt>
<trkpt lat="49.1340449" lon="2.6476360">
<ele>100.24</ele>
<time>2020-05-17T10:35:08Z</time>
</trkpt>
<trkpt lat="49.1339103" lon="2.6479382">
<ele>101.35</ele>
<time>2020-05-17T10:35:15Z</time>
</trkpt>
<trkpt lat="49.1338112" lon="2.6481690">
<ele>106.78</ele>
<time>2020-05-17T10:35:17Z</time>
</trkpt>
<trkpt lat="49.1336854" lon="2.6484630">
<ele>99.94</ele>
<time>2020-05-17T10:35:21Z</time>
</trkpt>
<trkpt lat="49.1335666" lon="2.6487006">
<ele>98.36</ele>
<time>2020-05-17T10:35:25Z</time>
</trkpt>
<trkpt lat="49.1334481" lon="2.6489867">
<ele>99.76</ele>
<time>2020-05-17T10:35:29Z</time>
</trkpt>
<trkpt lat="49.1333148" lon="2.6492487">
<ele>99.56</ele>
<time>2020-05-17T10:35:33Z</time>
</trkpt>
<trkpt lat="49.1331934" lon="2.6495063">
<ele>97.64</ele>
<time>2020-05-17T10:35:37Z</time>
</trkpt>
<trkpt lat="49.1331067" lon="2.6497518">
<ele>100.11</ele>
<time>2020-05-17T10:35:43Z</time>
</trkpt>
<trkpt lat="49.1329635" lon="2.6500266">
<ele>106.02</ele>
<time>2020-05-17T10:35:45Z</time>
</trkpt>
<trkpt lat="49.1328421" lon="2.6503023">
<ele>99.97</ele>
<time>2020-05-17T10:35:49Z</time>
</trkpt>
<trkpt lat="49.1327283" lon="2.6506216">
<ele>100.16</ele>
<time>2020-05-17T10:35:56Z</time>
</trkpt>
<trkpt lat="49.1325921" lon="2.6508936">
<ele>100.94</ele>
<time>2020-05-17T10:35:59Z</time>
</trkpt>
<trkpt lat="49.1324596" lon="2.6511467">
<ele>99.80</ele>
<time>2020-05-17T10:36:01Z</time>
</trkpt>
<trkpt lat="49.1323387" lon="2.6514057">
<ele>100.71</ele>
<time>2020-05-17T10:36:04Z</time>
</trkpt>
<trkpt lat="49.1322093" lon="2.6517211">
<ele>101.84</ele>
<time>2020-05-17T10:36:08Z</time>
</trkpt>
<trkpt lat="49.1320870" lon="2.6519865">
<ele>101.45</ele>
<time>2020-05-17T10:36:12Z</time>
</trkpt>
<trkpt lat="49.1319667" lon="2.6522183">
<ele>105.32</ele>
<time>2020-05-17T10:36:15Z</time>
</trkpt>
<trkpt lat="49.1318408" lon="2.6524692">
<ele>105.65</ele>
<time>2020-05-17T10:36:18Z</time>
</trkpt>
<trkpt lat="49.1317281" lon="2.6527181">
<ele>106.55</ele>
<time>2020-05-17T10:36:21Z</time>
</trkpt>
<trkpt lat="49.1316132" lon="2.6529676">
<ele>108.25</ele>
<time>2020-05-17T10:36:24Z</time>
</trkpt>
<trkpt lat="49.1314824" lon="2.6532214">
<ele>109.92</ele>
<time>2020-05-17T10:36:27Z</time>
</trkpt>
<trkpt lat="49.1313775" lon="2.6534526">
<ele>109.83</ele>
<time>2020-05-17T10:36:30Z</time>
</trkpt>
<trkpt lat="49.1312353" lon="2.6536977">
<ele>101.18</ele>
<time>2020-05-17T10:36:33Z</time>
</trkpt>
<trkpt lat="49.1311159" lon="2.6539416">
<ele>99.00</ele>
<time>2020-05-17T10:36:36Z</time>
</trkpt>
<trkpt lat="49.1309893" lon="2.6542481">
<ele>100.54</ele>
<time>2020-05-17T10:36:40Z</time>
</trkpt>
<trkpt lat="49.1308503" lon="2.6545510">
<ele>101.77</ele>
<time>2020-05-17T10:36:44Z</time>
</trkpt>
<trkpt lat="49.1307417" lon="2.6547927">
<ele>102.30</ele>
<time>2020-05-17T10:36:47Z</time>
</trkpt>
<trkpt lat="49.1306411" lon="2.6550251">
<ele>103.34</ele>
<time>2020-05-17T10:36:50Z</time>
</trkpt>
<trkpt lat="49.1304859" lon="2.6552772">
<ele>101.29</ele>
<time>2020-05-17T10:36:54Z</time>
</trkpt>
<trkpt lat="49.1303951" lon="2.6555237">
<ele>98.17</ele>
<time>2020-05-17T10:36:57Z</time>
</trkpt>
<trkpt lat="49.1302924" lon="2.6557659">
<ele>99.10</ele>
<time>2020-05-17T10:37:00Z</time>
</trkpt>
<trkpt lat="49.1301276" lon="2.6560151">
<ele>99.54</ele>
<time>2020-05-17T10:37:04Z</time>
</trkpt>
<trkpt lat="49.1300413" lon="2.6562591">
<ele>97.96</ele>
<time>2020-05-17T10:37:07Z</time>
</trkpt>
<trkpt lat="49.1299108" lon="2.6565580">
<ele>99.41</ele>
<time>2020-05-17T10:37:11Z</time>
</trkpt>
<trkpt lat="49.1297957" lon="2.6568352">
<ele>97.81</ele>
<time>2020-05-17T10:37:15Z</time>
</trkpt>
<trkpt lat="49.1297328" lon="2.6570990">
<ele>97.08</ele>
<time>2020-05-17T10:37:18Z</time>
</trkpt>
<trkpt lat="49.1296205" lon="2.6573649">
<ele>98.51</ele>
<time>2020-05-17T10:37:21Z</time>
</trkpt>
<trkpt lat="49.1294801" lon="2.6575537">
<ele>98.03</ele>
<time>2020-05-17T10:37:24Z</time>
</trkpt>
<trkpt lat="49.1293168" lon="2.6577160">
<ele>97.87</ele>
<time>2020-05-17T10:37:27Z</time>
</trkpt>
<trkpt lat="49.1291434" lon="2.6578709">
<ele>98.97</ele>
<time>2020-05-17T10:37:30Z</time>
</trkpt>
<trkpt lat="49.1289626" lon="2.6580228">
<ele>98.29</ele>
<time>2020-05-17T10:37:33Z</time>
</trkpt>
<trkpt lat="49.1288010" lon="2.6581485">
<ele>97.44</ele>
<time>2020-05-17T10:37:36Z</time>
</trkpt>
<trkpt lat="49.1286149" lon="2.6583572">
<ele>97.22</ele>
<time>2020-05-17T10:37:40Z</time>
</trkpt>
<trkpt lat="49.1284216" lon="2.6585221">
<ele>96.87</ele>
<time>2020-05-17T10:37:43Z</time>
</trkpt>
<trkpt lat="49.1282679" lon="2.6587015">
<ele>96.13</ele>
<time>2020-05-17T10:37:46Z</time>
</trkpt>
<trkpt lat="49.1281151" lon="2.6589312">
<ele>94.86</ele>
<time>2020-05-17T10:37:49Z</time>
</trkpt>
<trkpt lat="49.1279954" lon="2.6591540">
<ele>97.50</ele>
<time>2020-05-17T10:37:52Z</time>
</trkpt>
<trkpt lat="49.1278663" lon="2.6594272">
<ele>97.49</ele>
<time>2020-05-17T10:37:56Z</time>
</trkpt>
<trkpt lat="49.1277564" lon="2.6596760">
<ele>97.35</ele>
<time>2020-05-17T10:37:59Z</time>
</trkpt>
<trkpt lat="49.1276755" lon="2.6599513">
<ele>98.45</ele>
<time>2020-05-17T10:38:03Z</time>
</trkpt>
<trkpt lat="49.1276502" lon="2.6602269">
<ele>100.28</ele>
<time>2020-05-17T10:38:06Z</time>
</trkpt>
<trkpt lat="49.1276109" lon="2.6605226">
<ele>98.43</ele>
<time>2020-05-17T10:38:10Z</time>
</trkpt>
<trkpt lat="49.1275351" lon="2.6607953">
<ele>97.54</ele>
<time>2020-05-17T10:38:16Z</time>
</trkpt>
<trkpt lat="49.1275727" lon="2.6605151">
<ele>100.66</ele>
<time>2020-05-17T10:38:36Z</time>
</trkpt>
<trkpt lat="49.1276254" lon="2.6602479">
<ele>104.08</ele>
<time>2020-05-17T10:38:44Z</time>
</trkpt>
<trkpt lat="49.1275781" lon="2.6605279">
<ele>110.57</ele>
<time>2020-05-17T10:39:29Z</time>
</trkpt>
<trkpt lat="49.1275312" lon="2.6607948">
<ele>108.49</ele>
<time>2020-05-17T10:39:38Z</time>
</trkpt>
<trkpt lat="49.1274230" lon="2.6610234">
<ele>106.71</ele>
<time>2020-05-17T10:39:43Z</time>
</trkpt>
<trkpt lat="49.1272949" lon="2.6612866">
<ele>103.84</ele>
<time>2020-05-17T10:39:47Z</time>
</trkpt>
<trkpt lat="49.1271700" lon="2.6615184">
<ele>106.81</ele>
<time>2020-05-17T10:39:51Z</time>
</trkpt>
<trkpt lat="49.1270333" lon="2.6617378">
<ele>108.51</ele>
<time>2020-05-17T10:39:55Z</time>
</trkpt>
<trkpt lat="49.1268711" lon="2.6619341">
<ele>113.39</ele>
<time>2020-05-17T10:40:00Z</time>
</trkpt>
<trkpt lat="49.1266856" lon="2.6621030">
<ele>113.57</ele>
<time>2020-05-17T10:40:05Z</time>
</trkpt>
<trkpt lat="49.1265063" lon="2.6622538">
<ele>113.42</ele>
<time>2020-05-17T10:40:10Z</time>
</trkpt>
<trkpt lat="49.1263760" lon="2.6624625">
<ele>113.27</ele>
<time>2020-05-17T10:40:15Z</time>
</trkpt>
<trkpt lat="49.1262771" lon="2.6627409">
<ele>110.36</ele>
<time>2020-05-17T10:40:19Z</time>
</trkpt>
<trkpt lat="49.1261895" lon="2.6630543">
<ele>108.80</ele>
<time>2020-05-17T10:40:24Z</time>
</trkpt>
<trkpt lat="49.1261956" lon="2.6633910">
<ele>105.28</ele>
<time>2020-05-17T10:40:29Z</time>
</trkpt>
<trkpt lat="49.1261993" lon="2.6636847">
<ele>108.86</ele>
<time>2020-05-17T10:40:33Z</time>
</trkpt>
<trkpt lat="49.1261522" lon="2.6639849">
<ele>111.87</ele>
<time>2020-05-17T10:40:37Z</time>
</trkpt>
<trkpt lat="49.1261050" lon="2.6642633">
<ele>109.39</ele>
<time>2020-05-17T10:40:41Z</time>
</trkpt>
<trkpt lat="49.1260185" lon="2.6645665">
<ele>109.90</ele>
<time>2020-05-17T10:40:45Z</time>
</trkpt>
<trkpt lat="49.1259362" lon="2.6649417">
<ele>110.88</ele>
<time>2020-05-17T10:40:49Z</time>
</trkpt>
<trkpt lat="49.1258860" lon="2.6652368">
<ele>111.13</ele>
<time>2020-05-17T10:40:52Z</time>
</trkpt>
<trkpt lat="49.1257958" lon="2.6656078">
<ele>109.87</ele>
<time>2020-05-17T10:40:56Z</time>
</trkpt>
<trkpt lat="49.1256568" lon="2.6658879">
<ele>108.33</ele>
<time>2020-05-17T10:41:00Z</time>
</trkpt>
<trkpt lat="49.1256414" lon="2.6662056">
<ele>112.72</ele>
<time>2020-05-17T10:41:04Z</time>
</trkpt>
<trkpt lat="49.1255382" lon="2.6665139">
<ele>109.99</ele>
<time>2020-05-17T10:41:07Z</time>
</trkpt>
<trkpt lat="49.1254674" lon="2.6667806">
<ele>108.11</ele>
<time>2020-05-17T10:41:10Z</time>
</trkpt>
<trkpt lat="49.1253538" lon="2.6670954">
<ele>105.04</ele>
<time>2020-05-17T10:41:13Z</time>
</trkpt>
<trkpt lat="49.1252717" lon="2.6673436">
<ele>102.99</ele>
<time>2020-05-17T10:41:16Z</time>
</trkpt>
<trkpt lat="49.1253029" lon="2.6676770">
<ele>104.75</ele>
<time>2020-05-17T10:41:22Z</time>
</trkpt>
<trkpt lat="49.1253572" lon="2.6680089">
<ele>104.02</ele>
<time>2020-05-17T10:41:26Z</time>
</trkpt>
<trkpt lat="49.1253923" lon="2.6683578">
<ele>101.77</ele>
<time>2020-05-17T10:41:30Z</time>
</trkpt>
<trkpt lat="49.1254338" lon="2.6687141">
<ele>101.39</ele>
<time>2020-05-17T10:41:34Z</time>
</trkpt>
<trkpt lat="49.1254775" lon="2.6689912">
<ele>103.29</ele>
<time>2020-05-17T10:41:37Z</time>
</trkpt>
<trkpt lat="49.1255279" lon="2.6693071">
<ele>104.02</ele>
<time>2020-05-17T10:41:41Z</time>
</trkpt>
<trkpt lat="49.1255815" lon="2.6695936">
<ele>106.01</ele>
<time>2020-05-17T10:41:45Z</time>
</trkpt>
<trkpt lat="49.1257468" lon="2.6697637">
<ele>105.63</ele>
<time>2020-05-17T10:41:49Z</time>
</trkpt>
<trkpt lat="49.1258927" lon="2.6699427">
<ele>105.02</ele>
<time>2020-05-17T10:41:53Z</time>
</trkpt>
<trkpt lat="49.1260784" lon="2.6701124">
<ele>108.38</ele>
<time>2020-05-17T10:41:57Z</time>
</trkpt>
<trkpt lat="49.1262395" lon="2.6703004">
<ele>109.94</ele>
<time>2020-05-17T10:42:02Z</time>
</trkpt>
<trkpt lat="49.1264402" lon="2.6704013">
<ele>114.59</ele>
<time>2020-05-17T10:42:06Z</time>
</trkpt>
<trkpt lat="49.1266228" lon="2.6706078">
<ele>109.16</ele>
<time>2020-05-17T10:42:10Z</time>
</trkpt>
<trkpt lat="49.1268128" lon="2.6707693">
<ele>110.41</ele>
<time>2020-05-17T10:42:14Z</time>
</trkpt>
<trkpt lat="49.1269670" lon="2.6709241">
<ele>109.23</ele>
<time>2020-05-17T10:42:18Z</time>
</trkpt>
<trkpt lat="49.1271271" lon="2.6710627">
<ele>110.33</ele>
<time>2020-05-17T10:42:21Z</time>
</trkpt>
<trkpt lat="49.1273348" lon="2.6712596">
<ele>108.09</ele>
<time>2020-05-17T10:42:25Z</time>
</trkpt>
<trkpt lat="49.1274917" lon="2.6714297">
<ele>107.95</ele>
<time>2020-05-17T10:42:28Z</time>
</trkpt>
<trkpt lat="49.1276551" lon="2.6716078">
<ele>107.92</ele>
<time>2020-05-17T10:42:31Z</time>
</trkpt>
<trkpt lat="49.1278332" lon="2.6717608">
<ele>106.75</ele>
<time>2020-05-17T10:42:34Z</time>
</trkpt>
<trkpt lat="49.1280135" lon="2.6719651">
<ele>107.84</ele>
<time>2020-05-17T10:42:38Z</time>
</trkpt>
<trkpt lat="49.1280347" lon="2.6722815">
<ele>107.59</ele>
<time>2020-05-17T10:42:43Z</time>
</trkpt>
<trkpt lat="49.1279609" lon="2.6725546">
<ele>105.21</ele>
<time>2020-05-17T10:42:46Z</time>
</trkpt>
<trkpt lat="49.1278959" lon="2.6728242">
<ele>104.65</ele>
<time>2020-05-17T10:42:49Z</time>
</trkpt>
<trkpt lat="49.1278485" lon="2.6730993">
<ele>104.09</ele>
<time>2020-05-17T10:42:52Z</time>
</trkpt>
<trkpt lat="49.1277820" lon="2.6733709">
<ele>102.42</ele>
<time>2020-05-17T10:42:55Z</time>
</trkpt>
<trkpt lat="49.1277473" lon="2.6736549">
<ele>102.07</ele>
<time>2020-05-17T10:42:58Z</time>
</trkpt>
<trkpt lat="49.1277261" lon="2.6739475">
<ele>102.29</ele>
<time>2020-05-17T10:43:01Z</time>
</trkpt>
<trkpt lat="49.1277152" lon="2.6742469">
<ele>100.96</ele>
<time>2020-05-17T10:43:04Z</time>
</trkpt>
<trkpt lat="49.1277501" lon="2.6745480">
<ele>101.46</ele>
<time>2020-05-17T10:43:07Z</time>
</trkpt>
<trkpt lat="49.1278498" lon="2.6748704">
<ele>100.19</ele>
<time>2020-05-17T10:43:11Z</time>
</trkpt>
<trkpt lat="49.1279681" lon="2.6751681">
<ele>102.35</ele>
<time>2020-05-17T10:43:15Z</time>
</trkpt>
<trkpt lat="49.1280473" lon="2.6754222">
<ele>102.60</ele>
<time>2020-05-17T10:43:18Z</time>
</trkpt>
<trkpt lat="49.1281515" lon="2.6756716">
<ele>103.74</ele>
<time>2020-05-17T10:43:23Z</time>
</trkpt>
<trkpt lat="49.1282712" lon="2.6759349">
<ele>105.30</ele>
<time>2020-05-17T10:43:34Z</time>
</trkpt>
<trkpt lat="49.1283688" lon="2.6762744">
<ele>104.20</ele>
<time>2020-05-17T10:43:38Z</time>
</trkpt>
<trkpt lat="49.1284717" lon="2.6765319">
<ele>104.80</ele>
<time>2020-05-17T10:43:41Z</time>
</trkpt>
<trkpt lat="49.1285636" lon="2.6768180">
<ele>104.52</ele>
<time>2020-05-17T10:43:44Z</time>
</trkpt>
<trkpt lat="49.1286851" lon="2.6771102">
<ele>104.78</ele>
<time>2020-05-17T10:43:47Z</time>
</trkpt>
<trkpt lat="49.1288185" lon="2.6773837">
<ele>105.12</ele>
<time>2020-05-17T10:43:50Z</time>
</trkpt>
<trkpt lat="49.1289296" lon="2.6776938">
<ele>104.73</ele>
<time>2020-05-17T10:43:53Z</time>
</trkpt>
<trkpt lat="49.1290599" lon="2.6780138">
<ele>104.64</ele>
<time>2020-05-17T10:43:56Z</time>
</trkpt>
<trkpt lat="49.1291722" lon="2.6783404">
<ele>105.51</ele>
<time>2020-05-17T10:43:59Z</time>
</trkpt>
<trkpt lat="49.1292992" lon="2.6786169">
<ele>105.45</ele>
<time>2020-05-17T10:44:02Z</time>
</trkpt>
<trkpt lat="49.1294057" lon="2.6788739">
<ele>106.00</ele>
<time>2020-05-17T10:44:05Z</time>
</trkpt>
<trkpt lat="49.1295293" lon="2.6791621">
<ele>107.95</ele>
<time>2020-05-17T10:44:09Z</time>
</trkpt>
<trkpt lat="49.1296416" lon="2.6794036">
<ele>106.30</ele>
<time>2020-05-17T10:44:12Z</time>
</trkpt>
<trkpt lat="49.1296842" lon="2.6796943">
<ele>103.33</ele>
<time>2020-05-17T10:44:17Z</time>
</trkpt>
<trkpt lat="49.1296312" lon="2.6799632">
<ele>100.92</ele>
<time>2020-05-17T10:44:22Z</time>
</trkpt>
<trkpt lat="49.1295510" lon="2.6802246">
<ele>103.32</ele>
<time>2020-05-17T10:44:28Z</time>
</trkpt>
<trkpt lat="49.1293831" lon="2.6803716">
<ele>101.39</ele>
<time>2020-05-17T10:44:35Z</time>
</trkpt>
<trkpt lat="49.1292469" lon="2.6805546">
<ele>103.92</ele>
<time>2020-05-17T10:44:58Z</time>
</trkpt>
<trkpt lat="49.1290585" lon="2.6806237">
<ele>104.84</ele>
<time>2020-05-17T10:45:06Z</time>
</trkpt>
<trkpt lat="49.1288406" lon="2.6806424">
<ele>103.73</ele>
<time>2020-05-17T10:45:11Z</time>
</trkpt>
<trkpt lat="49.1286374" lon="2.6806551">
<ele>103.69</ele>
<time>2020-05-17T10:45:16Z</time>
</trkpt>
<trkpt lat="49.1284351" lon="2.6807266">
<ele>103.33</ele>
<time>2020-05-17T10:45:21Z</time>
</trkpt>
<trkpt lat="49.1283045" lon="2.6809618">
<ele>97.28</ele>
<time>2020-05-17T10:45:26Z</time>
</trkpt>
<trkpt lat="49.1282573" lon="2.6812641">
<ele>97.39</ele>
<time>2020-05-17T10:45:32Z</time>
</trkpt>
<trkpt lat="49.1281793" lon="2.6815164">
<ele>94.54</ele>
<time>2020-05-17T10:45:37Z</time>
</trkpt>
<trkpt lat="49.1281387" lon="2.6818217">
<ele>97.13</ele>
<time>2020-05-17T10:45:43Z</time>
</trkpt>
<trkpt lat="49.1281076" lon="2.6821260">
<ele>102.66</ele>
<time>2020-05-17T10:45:49Z</time>
</trkpt>
<trkpt lat="49.1280659" lon="2.6824252">
<ele>104.04</ele>
<time>2020-05-17T10:45:55Z</time>
</trkpt>
<trkpt lat="49.1281030" lon="2.6827137">
<ele>103.02</ele>
<time>2020-05-17T10:46:00Z</time>
</trkpt>
<trkpt lat="49.1280973" lon="2.6830182">
<ele>102.43</ele>
<time>2020-05-17T10:46:04Z</time>
</trkpt>
<trkpt lat="49.1281325" lon="2.6833227">
<ele>101.87</ele>
<time>2020-05-17T10:46:08Z</time>
</trkpt>
<trkpt lat="49.1280936" lon="2.6836652">
<ele>99.39</ele>
<time>2020-05-17T10:46:12Z</time>
</trkpt>
<trkpt lat="49.1280623" lon="2.6840302">
<ele>96.56</ele>
<time>2020-05-17T10:46:16Z</time>
</trkpt>
<trkpt lat="49.1280606" lon="2.6843958">
<ele>95.30</ele>
<time>2020-05-17T10:46:20Z</time>
</trkpt>
<trkpt lat="49.1280662" lon="2.6846949">
<ele>95.00</ele>
<time>2020-05-17T10:46:23Z</time>
</trkpt>
<trkpt lat="49.1280736" lon="2.6849936">
<ele>96.06</ele>
<time>2020-05-17T10:46:26Z</time>
</trkpt>
<trkpt lat="49.1280987" lon="2.6852996">
<ele>97.43</ele>
<time>2020-05-17T10:46:29Z</time>
</trkpt>
<trkpt lat="49.1281918" lon="2.6856061">
<ele>98.54</ele>
<time>2020-05-17T10:46:33Z</time>
</trkpt>
<trkpt lat="49.1282105" lon="2.6859549">
<ele>97.10</ele>
<time>2020-05-17T10:46:37Z</time>
</trkpt>
<trkpt lat="49.1281794" lon="2.6863125">
<ele>96.07</ele>
<time>2020-05-17T10:46:41Z</time>
</trkpt>
<trkpt lat="49.1280885" lon="2.6866460">
<ele>92.77</ele>
<time>2020-05-17T10:46:45Z</time>
</trkpt>
<trkpt lat="49.1280403" lon="2.6869406">
<ele>92.84</ele>
<time>2020-05-17T10:46:48Z</time>
</trkpt>
<trkpt lat="49.1279763" lon="2.6872222">
<ele>91.38</ele>
<time>2020-05-17T10:46:51Z</time>
</trkpt>
<trkpt lat="49.1279053" lon="2.6875165">
<ele>91.22</ele>
<time>2020-05-17T10:46:54Z</time>
</trkpt>
<trkpt lat="49.1278478" lon="2.6877785">
<ele>91.10</ele>
<time>2020-05-17T10:46:57Z</time>
</trkpt>
<trkpt lat="49.1277583" lon="2.6880537">
<ele>89.08</ele>
<time>2020-05-17T10:47:02Z</time>
</trkpt>
<trkpt lat="49.1276718" lon="2.6884034">
<ele>88.11</ele>
<time>2020-05-17T10:47:06Z</time>
</trkpt>
<trkpt lat="49.1275890" lon="2.6887045">
<ele>86.53</ele>
<time>2020-05-17T10:47:09Z</time>
</trkpt>
<trkpt lat="49.1274927" lon="2.6889687">
<ele>85.72</ele>
<time>2020-05-17T10:47:12Z</time>
</trkpt>
<trkpt lat="49.1274526" lon="2.6892517">
<ele>84.23</ele>
<time>2020-05-17T10:47:18Z</time>
</trkpt>
<trkpt lat="49.1273420" lon="2.6895656">
<ele>82.48</ele>
<time>2020-05-17T10:47:23Z</time>
</trkpt>
<trkpt lat="49.1273509" lon="2.6898990">
<ele>81.33</ele>
<time>2020-05-17T10:47:27Z</time>
</trkpt>
<trkpt lat="49.1274720" lon="2.6901049">
<ele>81.05</ele>
<time>2020-05-17T10:47:36Z</time>
</trkpt>
</trkseg>
</trk>
</gpx>
